Observation data for Menard on 05/14/2018      Previous  Date  Next       Current Mesonet Observations  Soil Data  Daily Summary Page  Observations in Plain Language
KMD1 140500Z 16010KT 26/18 A2994 RMK A01 T02610184  RH  062%=      5-min Rain = 0
KMD1 140501Z 17008KT 26/18 A2994 RMK A01 T02610183  RH  062%=      5-min Rain = 0
KMD1 140502Z 16010KT 26/18 A2994 RMK A01 T02610184  RH  062%=      5-min Rain = 0
KMD1 140503Z 17009KT 26/18 A2994 RMK A01 T02610183  RH  062%=      5-min Rain = 0
KMD1 140504Z 17008G13KT 26/18 A2994 RMK A01 T02610183  RH  062%=      5-min Rain = 0
KMD1 140505Z 16012KT 26/18 A2994 RMK A01 T02610183  RH  062%=      5-min Rain = 0
KMD1 140506Z 17009G14KT 26/18 A2994 RMK A01 T02610183  RH  062%=      5-min Rain = 0
KMD1 140507Z 17010KT 26/18 A2994 RMK A01 T02600183  RH  062%=      5-min Rain = 0
KMD1 140508Z 16009KT 26/18 A2994 RMK A01 T02610183  RH  062%=      5-min Rain = 0
KMD1 140509Z 17010KT 26/18 A2994 RMK A01 T02610183  RH  062%=      5-min Rain = 0
KMD1 140510Z 16009KT 26/18 A2995 RMK A01 T02610183  RH  062%=      5-min Rain = 0
KMD1 140511Z 17007KT 26/18 A2995 RMK A01 T02610184  RH  062%=      5-min Rain = 0
KMD1 140512Z 18006KT 26/18 A2995 RMK A01 T02600183  RH  063%=      5-min Rain = 0
KMD1 140513Z 17009G14KT 26/18 A2995 RMK A01 T02600183  RH  063%=      5-min Rain = 0
KMD1 140514Z 16010G15KT 26/18 A2995 RMK A01 T02600184  RH  063%=      5-min Rain = 0
KMD1 140515Z 17008KT 26/18 A2995 RMK A01 T02600184  RH  063%=      5-min Rain = 0
KMD1 140516Z 17007KT 26/18 A2995 RMK A01 T02600184  RH  063%=      5-min Rain = 0
KMD1 140517Z 19009KT 26/18 A2995 RMK A01 T02590183  RH  063%=      5-min Rain = 0
KMD1 140518Z 17010KT 26/18 A2995 RMK A01 T02590184  RH  063%=      5-min Rain = 0
KMD1 140519Z 18012KT 26/18 A2995 RMK A01 T02590184  RH  063%=      5-min Rain = 0
KMD1 140520Z 17012KT 26/18 A2995 RMK A01 T02590184  RH  063%=      5-min Rain = 0
KMD1 140521Z 16009KT 26/18 A2995 RMK A01 T02590184  RH  063%=      5-min Rain = 0
KMD1 140522Z 18008KT 26/18 A2995 RMK A01 T02590184  RH  063%=      5-min Rain = 0
KMD1 140523Z 16009KT 26/18 A2995 RMK A01 T02590184  RH  063%=      5-min Rain = 0
KMD1 140524Z 18008KT 26/18 A2995 RMK A01 T02590184  RH  064%=      5-min Rain = 0
KMD1 140525Z 17010KT 26/19 A2995 RMK A01 T02590185  RH  064%=      5-min Rain = 0
KMD1 140526Z 16012KT 26/19 A2995 RMK A01 T02590185  RH  064%=      5-min Rain = 0
KMD1 140527Z 16010KT 26/19 A2995 RMK A01 T02590185  RH  064%=      5-min Rain = 0
KMD1 140528Z 17008KT 26/19 A2994 RMK A01 T02590185  RH  064%=      5-min Rain = 0
KMD1 140529Z 16008KT 26/19 A2994 RMK A01 T02590185  RH  064%=      5-min Rain = 0
KMD1 140530Z 16009KT 26/19 A2994 RMK A01 T02580185  RH  064%=      5-min Rain = 0
KMD1 140531Z 15011KT 26/19 A2994 RMK A01 T02580185  RH  064%=      5-min Rain = 0
KMD1 140532Z 17012KT 26/19 A2995 RMK A01 T02580186  RH  064%=      5-min Rain = 0
KMD1 140533Z 16011KT 26/19 A2995 RMK A01 T02580186  RH  064%=      5-min Rain = 0
KMD1 140534Z 16014KT 26/19 A2995 RMK A01 T02580186  RH  064%=      5-min Rain = 0
KMD1 140535Z 17014KT 26/19 A2995 RMK A01 T02580186  RH  064%=      5-min Rain = 0
KMD1 140536Z 16011KT 26/19 A2995 RMK A01 T02580186  RH  064%=      5-min Rain = 0
KMD1 140537Z 16011KT 26/19 A2994 RMK A01 T02580186  RH  064%=      5-min Rain = 0
KMD1 140538Z 15011KT 26/19 A2994 RMK A01 T02580186  RH  064%=      5-min Rain = 0
KMD1 140539Z 16011KT 26/19 A2995 RMK A01 T02580186  RH  065%=      5-min Rain = 0
KMD1 140540Z 16010KT 26/19 A2994 RMK A01 T02580186  RH  065%=      5-min Rain = 0
KMD1 140541Z 15010KT 26/19 A2994 RMK A01 T02570187  RH  065%=      5-min Rain = 0
KMD1 140542Z 16008G13KT 26/19 A2994 RMK A01 T02570187  RH  065%=      5-min Rain = 0
KMD1 140543Z 16008KT 26/19 A2994 RMK A01 T02570187  RH  065%=      5-min Rain = 0
KMD1 140544Z 16007KT 26/19 A2994 RMK A01 T02570187  RH  065%=      5-min Rain = 0
KMD1 140545Z 16007KT 26/19 A2994 RMK A01 T02560187  RH  065%=      5-min Rain = 0
KMD1 140546Z 15010KT 26/19 A2994 RMK A01 T02560187  RH  066%=      5-min Rain = 0
KMD1 140547Z 15011KT 26/19 A2994 RMK A01 T02560188  RH  066%=      5-min Rain = 0
KMD1 140548Z 16011KT 26/19 A2994 RMK A01 T02560188  RH  066%=      5-min Rain = 0
KMD1 140549Z 15010KT 26/19 A2994 RMK A01 T02560188  RH  066%=      5-min Rain = 0
KMD1 140550Z 15009KT 26/19 A2995 RMK A01 T02560188  RH  066%=      5-min Rain = 0
KMD1 140551Z 14013KT 26/19 A2994 RMK A01 T02560188  RH  066%=      5-min Rain = 0
KMD1 140552Z 15013KT 26/19 A2994 RMK A01 T02560189  RH  066%=      5-min Rain = 0
KMD1 140553Z 15013KT 26/19 A2994 RMK A01 T02560189  RH  066%=      5-min Rain = 0
KMD1 140554Z 15011KT 26/19 A2994 RMK A01 T02560189  RH  066%=      5-min Rain = 0
KMD1 140555Z 15010KT 26/19 A2994 RMK A01 T02560189  RH  066%=      5-min Rain = 0
KMD1 140556Z 16009KT 26/19 A2994 RMK A01 T02550189  RH  067%=      5-min Rain = 0
KMD1 140557Z 16011KT 26/19 A2994 RMK A01 T02550189  RH  067%=      5-min Rain = 0
KMD1 140558Z 16015G21KT 26/19 A2994 RMK A01 T02550190  RH  067%=      5-min Rain = 0
KMD1 140559Z 15014G19KT 26/19 A2994 RMK A01 T02550190  RH  067%=      5-min Rain = 0
KMD1 140600Z 15016KT 26/19 A2994 RMK A01 T02550189  RH  067%=      5-min Rain = 0
KMD1 140601Z 15012KT 26/19 A2994 RMK A01 T02550190  RH  067%=      5-min Rain = 0
KMD1 140602Z 15011KT 26/19 A2995 RMK A01 T02550190  RH  067%=      5-min Rain = 0
KMD1 140603Z 15010KT 26/19 A2995 RMK A01 T02550190  RH  067%=      5-min Rain = 0
KMD1 140604Z 16010KT 26/19 A2995 RMK A01 T02550190  RH  067%=      5-min Rain = 0
KMD1 140605Z 15011KT 25/19 A2995 RMK A01 T02540190  RH  068%=      5-min Rain = 0
KMD1 140606Z 16012KT 25/19 A2995 RMK A01 T02540190  RH  068%=      5-min Rain = 0
KMD1 140607Z 16013KT 25/19 A2995 RMK A01 T02540190  RH  068%=      5-min Rain = 0
KMD1 140608Z 16014KT 25/19 A2995 RMK A01 T02540191  RH  068%=      5-min Rain = 0
KMD1 140609Z 16012KT 25/19 A2995 RMK A01 T02540190  RH  068%=      5-min Rain = 0
KMD1 140610Z 16012KT 25/19 A2995 RMK A01 T02540190  RH  068%=      5-min Rain = 0
KMD1 140611Z 16012KT 25/19 A2995 RMK A01 T02540190  RH  068%=      5-min Rain = 0
KMD1 140612Z 17012KT 25/19 A2995 RMK A01 T02540191  RH  068%=      5-min Rain = 0
KMD1 140613Z 16012KT 25/19 A2995 RMK A01 T02540191  RH  068%=      5-min Rain = 0
KMD1 140614Z 16012KT 25/19 A2995 RMK A01 T02540191  RH  068%=      5-min Rain = 0
KMD1 140615Z 17010KT 25/19 A2995 RMK A01 T02530191  RH  068%=      5-min Rain = 0
KMD1 140616Z 17014KT 25/19 A2995 RMK A01 T02530191  RH  068%=      5-min Rain = 0
KMD1 140617Z 18013KT 25/19 A2995 RMK A01 T02530191  RH  069%=      5-min Rain = 0
KMD1 140618Z 17009KT 25/19 A2995 RMK A01 T02530191  RH  069%=      5-min Rain = 0
KMD1 140619Z 16007KT 25/19 A2995 RMK A01 T02530191  RH  069%=      5-min Rain = 0
KMD1 140620Z 16009KT 25/19 A2995 RMK A01 T02520191  RH  069%=      5-min Rain = 0
KMD1 140621Z 16013KT 25/19 A2995 RMK A01 T02520191  RH  069%=      5-min Rain = 0
KMD1 140622Z 17010KT 25/19 A2995 RMK A01 T02520191  RH  069%=      5-min Rain = 0
KMD1 140623Z 16010KT 25/19 A2995 RMK A01 T02520191  RH  069%=      5-min Rain = 0
KMD1 140624Z 17014KT 25/19 A2995 RMK A01 T02520191  RH  069%=      5-min Rain = 0
KMD1 140625Z 17012KT 25/19 A2995 RMK A01 T02520192  RH  069%=      5-min Rain = 0
KMD1 140626Z 16011KT 25/19 A2995 RMK A01 T02520192  RH  069%=      5-min Rain = 0
KMD1 140627Z 17009KT 25/19 A2995 RMK A01 T02520192  RH  069%=      5-min Rain = 0
KMD1 140628Z 18012KT 25/19 A2995 RMK A01 T02520193  RH  070%=      5-min Rain = 0
KMD1 140629Z 17011KT 25/19 A2995 RMK A01 T02510192  RH  070%=      5-min Rain = 0
KMD1 140630Z 18009KT 25/19 A2995 RMK A01 T02510192  RH  070%=      5-min Rain = 0
KMD1 140631Z 17009KT 25/19 A2996 RMK A01 T02510192  RH  070%=      5-min Rain = 0
KMD1 140632Z 16008KT 25/19 A2996 RMK A01 T02510192  RH  070%=      5-min Rain = 0
KMD1 140633Z 17008KT 25/19 A2996 RMK A01 T02510192  RH  070%=      5-min Rain = 0
KMD1 140634Z 16011G16KT 25/19 A2996 RMK A01 T02500192  RH  070%=      5-min Rain = 0
KMD1 140635Z 16013KT 25/19 A2996 RMK A01 T02500193  RH  070%=      5-min Rain = 0
KMD1 140636Z 16011KT 25/19 A2996 RMK A01 T02500193  RH  070%=      5-min Rain = 0
KMD1 140637Z 17014KT 25/19 A2996 RMK A01 T02500193  RH  070%=      5-min Rain = 0
KMD1 140638Z 16016KT 25/19 A2996 RMK A01 T02510193  RH  070%=      5-min Rain = 0
KMD1 140639Z 16014KT 25/19 A2996 RMK A01 T02500193  RH  070%=      5-min Rain = 0
KMD1 140640Z 17009KT 25/19 A2996 RMK A01 T02500193  RH  070%=      5-min Rain = 0
KMD1 140641Z 17008KT 25/19 A2996 RMK A01 T02500193  RH  071%=      5-min Rain = 0
KMD1 140642Z 17010KT 25/19 A2996 RMK A01 T02500193  RH  071%=      5-min Rain = 0
KMD1 140643Z 17011KT 25/19 A2996 RMK A01 T02490193  RH  071%=      5-min Rain = 0
KMD1 140644Z 15012KT 25/19 A2996 RMK A01 T02500194  RH  071%=      5-min Rain = 0
KMD1 140645Z 17008KT 25/19 A2996 RMK A01 T02500194  RH  071%=      5-min Rain = 0
KMD1 140646Z 17010G16KT 25/19 A2996 RMK A01 T02500194  RH  071%=      5-min Rain = 0
KMD1 140647Z 17012KT 25/19 A2996 RMK A01 T02500194  RH  071%=      5-min Rain = 0
KMD1 140648Z 17011KT 25/19 A2996 RMK A01 T02500194  RH  071%=      5-min Rain = 0
KMD1 140649Z 17011KT 25/19 A2996 RMK A01 T02490194  RH  071%=      5-min Rain = 0
KMD1 140650Z 16008KT 25/19 A2996 RMK A01 T02490194  RH  071%=      5-min Rain = 0
KMD1 140651Z 17012KT 25/19 A2996 RMK A01 T02490194  RH  071%=      5-min Rain = 0
KMD1 140652Z 18011KT 25/19 A2996 RMK A01 T02490194  RH  071%=      5-min Rain = 0
KMD1 140653Z 17012KT 25/19 A2996 RMK A01 T02490194  RH  071%=      5-min Rain = 0
KMD1 140654Z 17015KT 25/19 A2996 RMK A01 T02490194  RH  071%=      5-min Rain = 0
KMD1 140655Z 16014KT 25/19 A2996 RMK A01 T02490194  RH  071%=      5-min Rain = 0
KMD1 140656Z 17013KT 25/19 A2996 RMK A01 T02490194  RH  071%=      5-min Rain = 0
KMD1 140657Z 16010KT 25/19 A2996 RMK A01 T02490194  RH  072%=      5-min Rain = 0
KMD1 140658Z 16011KT 25/19 A2996 RMK A01 T02490194  RH  072%=      5-min Rain = 0
KMD1 140659Z 16013KT 25/19 A2996 RMK A01 T02480194  RH  072%=      5-min Rain = 0
KMD1 140700Z 17013KT 25/19 A2996 RMK A01 T02480194  RH  072%=      5-min Rain = 0
KMD1 140701Z 17011KT 25/19 A2996 RMK A01 T02480194  RH  072%=      5-min Rain = 0
KMD1 140702Z 16010KT 25/19 A2996 RMK A01 T02480194  RH  072%=      5-min Rain = 0
KMD1 140703Z 17012KT 25/19 A2996 RMK A01 T02480194  RH  072%=      5-min Rain = 0
KMD1 140704Z 17011KT 25/19 A2996 RMK A01 T02480194  RH  072%=      5-min Rain = 0
KMD1 140705Z 16008KT 25/19 A2996 RMK A01 T02470194  RH  072%=      5-min Rain = 0
KMD1 140706Z 17010KT 25/19 A2996 RMK A01 T02480194  RH  072%=      5-min Rain = 0
KMD1 140707Z 16009KT 25/19 A2996 RMK A01 T02470194  RH  072%=      5-min Rain = 0
KMD1 140708Z 16008KT 25/19 A2996 RMK A01 T02470194  RH  072%=      5-min Rain = 0
KMD1 140709Z 16006KT 25/19 A2996 RMK A01 T02470194  RH  072%=      5-min Rain = 0
KMD1 140710Z 16007KT 25/19 A2996 RMK A01 T02460194  RH  072%=      5-min Rain = 0
KMD1 140711Z 14007KT 25/19 A2996 RMK A01 T02460194  RH  073%=      5-min Rain = 0
KMD1 140712Z 16006KT 25/19 A2996 RMK A01 T02460193  RH  073%=      5-min Rain = 0
KMD1 140713Z 16005KT 25/19 A2996 RMK A01 T02460194  RH  073%=      5-min Rain = 0
KMD1 140714Z 17006KT 25/19 A2996 RMK A01 T02460194  RH  073%=      5-min Rain = 0
KMD1 140715Z 16005KT 25/19 A2996 RMK A01 T02450194  RH  073%=      5-min Rain = 0
KMD1 140716Z 16005KT 25/19 A2996 RMK A01 T02450194  RH  073%=      5-min Rain = 0
KMD1 140717Z 16006KT 25/19 A2996 RMK A01 T02450194  RH  073%=      5-min Rain = 0
KMD1 140718Z 16007KT 25/19 A2996 RMK A01 T02450193  RH  073%=      5-min Rain = 0
KMD1 140719Z 16006KT 24/19 A2996 RMK A01 T02440193  RH  073%=      5-min Rain = 0
KMD1 140720Z 16007KT 24/19 A2996 RMK A01 T02440194  RH  073%=      5-min Rain = 0
KMD1 140721Z 17006KT 25/19 A2996 RMK A01 T02450194  RH  073%=      5-min Rain = 0
KMD1 140722Z 15005KT 24/19 A2996 RMK A01 T02440193  RH  073%=      5-min Rain = 0
KMD1 140723Z 16005KT 24/19 A2997 RMK A01 T02440193  RH  073%=      5-min Rain = 0
KMD1 140724Z 16007KT 24/19 A2997 RMK A01 T02440194  RH  073%=      5-min Rain = 0
KMD1 140725Z 15006KT 24/19 A2997 RMK A01 T02440193  RH  073%=      5-min Rain = 0
KMD1 140726Z 16006KT 24/19 A2997 RMK A01 T02440194  RH  073%=      5-min Rain = 0
KMD1 140727Z 16006KT 24/19 A2996 RMK A01 T02440194  RH  074%=      5-min Rain = 0
KMD1 140728Z 15007KT 24/19 A2996 RMK A01 T02440194  RH  074%=      5-min Rain = 0
KMD1 140729Z 15008KT 24/19 A2996 RMK A01 T02430193  RH  074%=      5-min Rain = 0
KMD1 140730Z 16008KT 24/19 A2996 RMK A01 T02430193  RH  074%=      5-min Rain = 0
KMD1 140731Z 16009KT 24/19 A2996 RMK A01 T02420193  RH  074%=      5-min Rain = 0
KMD1 140732Z 15010KT 24/19 A2996 RMK A01 T02420193  RH  074%=      5-min Rain = 0
KMD1 140733Z 14009KT 24/19 A2996 RMK A01 T02420193  RH  074%=      5-min Rain = 0
KMD1 140734Z 15009KT 24/19 A2996 RMK A01 T02420193  RH  074%=      5-min Rain = 0
KMD1 140735Z 15010KT 24/19 A2996 RMK A01 T02420192  RH  074%=      5-min Rain = 0
KMD1 140736Z 15010KT 24/19 A2996 RMK A01 T02420193  RH  074%=      5-min Rain = 0
KMD1 140737Z 15011KT 24/19 A2996 RMK A01 T02420193  RH  074%=      5-min Rain = 0
KMD1 140738Z 15010KT 24/19 A2996 RMK A01 T02420193  RH  074%=      5-min Rain = 0
KMD1 140739Z 15008KT 24/19 A2996 RMK A01 T02420193  RH  074%=      5-min Rain = 0
KMD1 140740Z 14008KT 24/19 A2996 RMK A01 T02420193  RH  074%=      5-min Rain = 0
KMD1 140741Z 14008KT 24/19 A2996 RMK A01 T02420193  RH  074%=      5-min Rain = 0
KMD1 140742Z 14008KT 24/19 A2996 RMK A01 T02420193  RH  074%=      5-min Rain = 0
KMD1 140743Z 14009KT 24/19 A2996 RMK A01 T02420193  RH  074%=      5-min Rain = 0
KMD1 140744Z 14008KT 24/19 A2995 RMK A01 T02410192  RH  074%=      5-min Rain = 0
KMD1 140745Z 14009KT 24/19 A2995 RMK A01 T02410192  RH  074%=      5-min Rain = 0
KMD1 140746Z 14009KT 24/19 A2995 RMK A01 T02410192  RH  074%=      5-min Rain = 0
KMD1 140747Z 14008KT 24/19 A2995 RMK A01 T02410192  RH  074%=      5-min Rain = 0
KMD1 140748Z 15009KT 24/19 A2995 RMK A01 T02410192  RH  074%=      5-min Rain = 0
KMD1 140749Z 13009KT 24/19 A2995 RMK A01 T02410192  RH  074%=      5-min Rain = 0
KMD1 140750Z 14009KT 24/19 A2995 RMK A01 T02400191  RH  074%=      5-min Rain = 0
KMD1 140751Z 14008KT 24/19 A2995 RMK A01 T02400191  RH  074%=      5-min Rain = 0
KMD1 140752Z 15010KT 24/19 A2995 RMK A01 T02400191  RH  074%=      5-min Rain = 0
KMD1 140753Z 14010KT 24/19 A2995 RMK A01 T02400191  RH  074%=      5-min Rain = 0
KMD1 140754Z 14012KT 24/19 A2995 RMK A01 T02400191  RH  074%=      5-min Rain = 0
KMD1 140755Z 15009KT 24/19 A2995 RMK A01 T02400190  RH  074%=      5-min Rain = 0
KMD1 140756Z 14011KT 24/19 A2995 RMK A01 T02400190  RH  074%=      5-min Rain = 0
KMD1 140757Z 14011KT 24/19 A2995 RMK A01 T02400190  RH  074%=      5-min Rain = 0
KMD1 140758Z 14010KT 24/19 A2995 RMK A01 T02390190  RH  074%=      5-min Rain = 0
KMD1 140759Z 14009KT 24/19 A2995 RMK A01 T02390190  RH  074%=      5-min Rain = 0
KMD1 140800Z 15011KT 24/19 A2995 RMK A01 T02390190  RH  074%=      5-min Rain = 0
KMD1 140801Z 14012KT 24/19 A2995 RMK A01 T02390189  RH  074%=      5-min Rain = 0
KMD1 140802Z 15010KT 24/19 A2995 RMK A01 T02390189  RH  074%=      5-min Rain = 0
KMD1 140803Z 13008KT 24/19 A2995 RMK A01 T02390189  RH  074%=      5-min Rain = 0
KMD1 140804Z 14009KT 24/19 A2995 RMK A01 T02390190  RH  074%=      5-min Rain = 0
KMD1 140805Z 14010KT 24/19 A2995 RMK A01 T02380189  RH  074%=      5-min Rain = 0
KMD1 140806Z 14008KT 24/19 A2995 RMK A01 T02380189  RH  074%=      5-min Rain = 0
KMD1 140807Z 15009KT 24/19 A2995 RMK A01 T02380189  RH  074%=      5-min Rain = 0
KMD1 140808Z 14007KT 24/19 A2995 RMK A01 T02380189  RH  074%=      5-min Rain = 0
KMD1 140809Z 14007KT 24/19 A2995 RMK A01 T02370189  RH  074%=      5-min Rain = 0
KMD1 140810Z 15009KT 24/19 A2995 RMK A01 T02370189  RH  074%=      5-min Rain = 0
KMD1 140816Z 15012KT 24/19 A2996 RMK A01 T02370189  RH  075%=      5-min Rain = 0
KMD1 140817Z 15010KT 24/19 A2996 RMK A01 T02370189  RH  075%=      5-min Rain = 0
KMD1 140818Z 15010KT 24/19 A2996 RMK A01 T02370189  RH  075%=      5-min Rain = 0
KMD1 140819Z 16010KT 24/19 A2996 RMK A01 T02370189  RH  075%=      5-min Rain = 0
KMD1 140820Z 16010KT 24/19 A2996 RMK A01 T02370189  RH  075%=      5-min Rain = 0
KMD1 140821Z 16008KT 24/19 A2996 RMK A01 T02360189  RH  075%=      5-min Rain = 0
KMD1 140822Z 15008KT 24/19 A2996 RMK A01 T02370190  RH  075%=      5-min Rain = 0
KMD1 140823Z 16007KT 24/19 A2996 RMK A01 T02360190  RH  075%=      5-min Rain = 0
KMD1 140824Z 16009KT 24/19 A2996 RMK A01 T02360190  RH  075%=      5-min Rain = 0
KMD1 140825Z 16008KT 24/19 A2996 RMK A01 T02360190  RH  075%=      5-min Rain = 0
KMD1 140826Z 16009KT 24/19 A2996 RMK A01 T02360190  RH  075%=      5-min Rain = 0
KMD1 140827Z 16010KT 24/19 A2996 RMK A01 T02360190  RH  075%=      5-min Rain = 0
KMD1 140828Z 15011KT 24/19 A2996 RMK A01 T02360190  RH  075%=      5-min Rain = 0
KMD1 140829Z 16009KT 24/19 A2996 RMK A01 T02360190  RH  075%=      5-min Rain = 0
KMD1 140830Z 16009KT 24/19 A2996 RMK A01 T02360190  RH  075%=      5-min Rain = 0
KMD1 140831Z 16011KT 24/19 A2996 RMK A01 T02370190  RH  075%=      5-min Rain = 0
KMD1 140832Z 15010KT 24/19 A2996 RMK A01 T02370190  RH  075%=      5-min Rain = 0
KMD1 140833Z 16012KT 24/19 A2996 RMK A01 T02370190  RH  075%=      5-min Rain = 0
KMD1 140834Z 16012KT 24/19 A2996 RMK A01 T02370190  RH  075%=      5-min Rain = 0
KMD1 140835Z 16010KT 24/19 A2996 RMK A01 T02370191  RH  075%=      5-min Rain = 0
KMD1 140836Z 16008KT 24/19 A2996 RMK A01 T02370191  RH  075%=      5-min Rain = 0
KMD1 140837Z 16006KT 24/19 A2996 RMK A01 T02370191  RH  075%=      5-min Rain = 0
KMD1 140838Z 16006KT 24/19 A2996 RMK A01 T02370191  RH  075%=      5-min Rain = 0
KMD1 140839Z 16007KT 24/19 A2996 RMK A01 T02370191  RH  075%=      5-min Rain = 0
KMD1 140840Z 17009KT 24/19 A2996 RMK A01 T02360191  RH  076%=      5-min Rain = 0
KMD1 140841Z 16009KT 24/19 A2996 RMK A01 T02370191  RH  076%=      5-min Rain = 0
KMD1 140842Z 15009G14KT 24/19 A2996 RMK A01 T02370191  RH  076%=      5-min Rain = 0
KMD1 140843Z 15007KT 24/19 A2996 RMK A01 T02370191  RH  076%=      5-min Rain = 0
KMD1 140844Z 15008KT 24/19 A2996 RMK A01 T02370191  RH  076%=      5-min Rain = 0
KMD1 140845Z 15007KT 24/19 A2996 RMK A01 T02370191  RH  076%=      5-min Rain = 0
KMD1 140846Z 17008KT 24/19 A2996 RMK A01 T02360191  RH  076%=      5-min Rain = 0
KMD1 140847Z 15008KT 24/19 A2996 RMK A01 T02360191  RH  076%=      5-min Rain = 0
KMD1 140848Z 15007KT 24/19 A2996 RMK A01 T02360191  RH  076%=      5-min Rain = 0
KMD1 140849Z 16007KT 24/19 A2996 RMK A01 T02360191  RH  076%=      5-min Rain = 0
KMD1 140850Z 15010KT 24/19 A2996 RMK A01 T02360191  RH  076%=      5-min Rain = 0
KMD1 140851Z 15011KT 24/19 A2996 RMK A01 T02360191  RH  076%=      5-min Rain = 0
KMD1 140852Z 16010KT 24/19 A2996 RMK A01 T02360191  RH  076%=      5-min Rain = 0
KMD1 140853Z 16013KT 24/19 A2996 RMK A01 T02360191  RH  076%=      5-min Rain = 0
KMD1 140854Z 14013KT 24/19 A2996 RMK A01 T02360191  RH  076%=      5-min Rain = 0
KMD1 140855Z 15011KT 24/19 A2996 RMK A01 T02360191  RH  076%=      5-min Rain = 0
KMD1 140856Z 15010KT 24/19 A2996 RMK A01 T02360192  RH  076%=      5-min Rain = 0
KMD1 140857Z 16011KT 24/19 A2996 RMK A01 T02360192  RH  076%=      5-min Rain = 0
KMD1 140858Z 16010KT 24/19 A2996 RMK A01 T02350192  RH  076%=      5-min Rain = 0
KMD1 140859Z 16009KT 24/19 A2996 RMK A01 T02350191  RH  076%=      5-min Rain = 0
KMD1 140900Z 15012KT 24/19 A2996 RMK A01 T02350191  RH  076%=      5-min Rain = 0
KMD1 140901Z 16011KT 24/19 A2996 RMK A01 T02350191  RH  076%=      5-min Rain = 0
KMD1 140902Z 16008KT 24/19 A2996 RMK A01 T02350192  RH  076%=      5-min Rain = 0
KMD1 140903Z 15008KT 24/19 A2996 RMK A01 T02350192  RH  077%=      5-min Rain = 0
KMD1 140904Z 16009KT 24/19 A2996 RMK A01 T02350192  RH  077%=      5-min Rain = 0
KMD1 140905Z 16008KT 24/19 A2996 RMK A01 T02350192  RH  077%=      5-min Rain = 0
KMD1 140906Z 16009KT 24/19 A2996 RMK A01 T02350192  RH  077%=      5-min Rain = 0
KMD1 140907Z 16008KT 24/19 A2997 RMK A01 T02350192  RH  077%=      5-min Rain = 0
KMD1 140908Z 16009KT 24/19 A2997 RMK A01 T02350192  RH  077%=      5-min Rain = 0
KMD1 140909Z 16009KT 24/19 A2997 RMK A01 T02350192  RH  077%=      5-min Rain = 0
KMD1 140910Z 17007KT 24/19 A2997 RMK A01 T02350192  RH  077%=      5-min Rain = 0
KMD1 140911Z 17009KT 23/19 A2997 RMK A01 T02340191  RH  077%=      5-min Rain = 0
KMD1 140912Z 16009KT 23/19 A2997 RMK A01 T02340191  RH  077%=      5-min Rain = 0
KMD1 140913Z 17009KT 23/19 A2997 RMK A01 T02340191  RH  077%=      5-min Rain = 0
KMD1 140914Z 16006G13KT 23/19 A2997 RMK A01 T02340191  RH  077%=      5-min Rain = 0
KMD1 140915Z 16009KT 23/19 A2997 RMK A01 T02340191  RH  077%=      5-min Rain = 0
KMD1 140916Z 16010KT 23/19 A2997 RMK A01 T02340191  RH  077%=      5-min Rain = 0
KMD1 140917Z 15010KT 23/19 A2997 RMK A01 T02340191  RH  077%=      5-min Rain = 0
KMD1 140918Z 15010KT 23/19 A2997 RMK A01 T02340191  RH  077%=      5-min Rain = 0
KMD1 140919Z 15009KT 24/19 A2997 RMK A01 T02350191  RH  077%=      5-min Rain = 0
KMD1 140920Z 15010KT 23/19 A2997 RMK A01 T02340191  RH  077%=      5-min Rain = 0
KMD1 140921Z 15011KT 23/19 A2997 RMK A01 T02340191  RH  077%=      5-min Rain = 0
KMD1 140922Z 16009KT 23/19 A2997 RMK A01 T02340191  RH  077%=      5-min Rain = 0
KMD1 140923Z 16009KT 23/19 A2997 RMK A01 T02340191  RH  077%=      5-min Rain = 0
KMD1 140924Z 16009KT 23/19 A2997 RMK A01 T02340191  RH  077%=      5-min Rain = 0
KMD1 140925Z 15010KT 23/19 A2997 RMK A01 T02330191  RH  077%=      5-min Rain = 0
KMD1 140926Z 16009KT 23/19 A2997 RMK A01 T02330191  RH  077%=      5-min Rain = 0
KMD1 140927Z 17007KT 23/19 A2997 RMK A01 T02340191  RH  077%=      5-min Rain = 0
KMD1 140928Z 16010KT 23/19 A2997 RMK A01 T02330191  RH  077%=      5-min Rain = 0
KMD1 140929Z 17010KT 23/19 A2997 RMK A01 T02330191  RH  077%=      5-min Rain = 0
KMD1 140930Z 17008KT 23/19 A2998 RMK A01 T02330191  RH  077%=      5-min Rain = 0
KMD1 140931Z 16009KT 23/19 A2998 RMK A01 T02330191  RH  077%=      5-min Rain = 0
KMD1 140932Z 15007KT 23/19 A2998 RMK A01 T02330191  RH  077%=      5-min Rain = 0
KMD1 140933Z 15006KT 23/19 A2998 RMK A01 T02330191  RH  077%=      5-min Rain = 0
KMD1 140934Z 14007KT 23/19 A2998 RMK A01 T02330191  RH  077%=      5-min Rain = 0
KMD1 140935Z 15006KT 23/19 A2998 RMK A01 T02330190  RH  077%=      5-min Rain = 0
KMD1 140936Z 16008KT 23/19 A2998 RMK A01 T02330191  RH  077%=      5-min Rain = 0
KMD1 140937Z 16007KT 23/19 A2998 RMK A01 T02330191  RH  077%=      5-min Rain = 0
KMD1 140938Z 15008KT 23/19 A2998 RMK A01 T02330191  RH  077%=      5-min Rain = 0
KMD1 140939Z 14005KT 23/19 A2998 RMK A01 T02330190  RH  077%=      5-min Rain = 0
KMD1 140940Z 15006KT 23/19 A2998 RMK A01 T02330191  RH  077%=      5-min Rain = 0
KMD1 140941Z 15008KT 23/19 A2998 RMK A01 T02330191  RH  077%=      5-min Rain = 0
KMD1 140942Z 15008KT 23/19 A2998 RMK A01 T02320191  RH  077%=      5-min Rain = 0
KMD1 140943Z 14006KT 23/19 A2998 RMK A01 T02320191  RH  077%=      5-min Rain = 0
KMD1 140944Z 14007KT 23/19 A2998 RMK A01 T02320191  RH  077%=      5-min Rain = 0
KMD1 140945Z 15007KT 23/19 A2998 RMK A01 T02320191  RH  077%=      5-min Rain = 0
KMD1 140946Z 15008KT 23/19 A2998 RMK A01 T02320191  RH  077%=      5-min Rain = 0
KMD1 140947Z 14009KT 23/19 A2997 RMK A01 T02320190  RH  077%=      5-min Rain = 0
KMD1 140948Z 14008KT 23/19 A2997 RMK A01 T02320190  RH  077%=      5-min Rain = 0
KMD1 140949Z 15008KT 23/19 A2997 RMK A01 T02330191  RH  077%=      5-min Rain = 0
KMD1 140950Z 14008KT 23/19 A2997 RMK A01 T02320190  RH  077%=      5-min Rain = 0
KMD1 140951Z 14010KT 23/19 A2997 RMK A01 T02310190  RH  077%=      5-min Rain = 0
KMD1 140952Z 15010KT 23/19 A2997 RMK A01 T02310190  RH  077%=      5-min Rain = 0
KMD1 140953Z 16011KT 23/19 A2997 RMK A01 T02320190  RH  077%=      5-min Rain = 0
KMD1 140954Z 15009KT 23/19 A2997 RMK A01 T02320190  RH  078%=      5-min Rain = 0
KMD1 140955Z 16008KT 23/19 A2997 RMK A01 T02320190  RH  078%=      5-min Rain = 0
KMD1 140956Z 15011KT 23/19 A2997 RMK A01 T02320190  RH  078%=      5-min Rain = 0
KMD1 140957Z 15011KT 23/19 A2997 RMK A01 T02320190  RH  078%=      5-min Rain = 0
KMD1 140958Z 14008KT 23/19 A2997 RMK A01 T02320190  RH  078%=      5-min Rain = 0
KMD1 140959Z 15008KT 23/19 A2997 RMK A01 T02320190  RH  078%=      5-min Rain = 0
KMD1 141000Z 15010KT 23/19 A2997 RMK A01 T02310190  RH  078%=      5-min Rain = 0
KMD1 141001Z 14009KT 23/19 A2997 RMK A01 T02310190  RH  078%=      5-min Rain = 0
KMD1 141002Z 15009KT 23/19 A2997 RMK A01 T02310190  RH  078%=      5-min Rain = 0
KMD1 141003Z 15008KT 23/19 A2997 RMK A01 T02310190  RH  078%=      5-min Rain = 0
KMD1 141004Z 15007KT 23/19 A2997 RMK A01 T02310190  RH  078%=      5-min Rain = 0
KMD1 141005Z 15008KT 23/19 A2997 RMK A01 T02310190  RH  078%=      5-min Rain = 0
KMD1 141006Z 14007KT 23/19 A2997 RMK A01 T02310191  RH  078%=      5-min Rain = 0
KMD1 141007Z 14008KT 23/19 A2997 RMK A01 T02310190  RH  078%=      5-min Rain = 0
KMD1 141008Z 15009KT 23/19 A2997 RMK A01 T02310190  RH  078%=      5-min Rain = 0
KMD1 141009Z 15009KT 23/19 A2997 RMK A01 T02310190  RH  078%=      5-min Rain = 0
KMD1 141010Z 15008KT 23/19 A2997 RMK A01 T02310190  RH  078%=      5-min Rain = 0
KMD1 141011Z 15010KT 23/19 A2997 RMK A01 T02310190  RH  078%=      5-min Rain = 0
KMD1 141012Z 14008KT 23/19 A2997 RMK A01 T02310190  RH  078%=      5-min Rain = 0
KMD1 141013Z 15008KT 23/19 A2997 RMK A01 T02300190  RH  078%=      5-min Rain = 0
KMD1 141014Z 16007KT 23/19 A2997 RMK A01 T02300190  RH  078%=      5-min Rain = 0
KMD1 141015Z 16009KT 23/19 A2997 RMK A01 T02300190  RH  078%=      5-min Rain = 0
KMD1 141016Z 14008KT 23/19 A2997 RMK A01 T02300190  RH  078%=      5-min Rain = 0
KMD1 141017Z 16008KT 23/19 A2997 RMK A01 T02300190  RH  078%=      5-min Rain = 0
KMD1 141018Z 14007KT 23/19 A2997 RMK A01 T02300190  RH  078%=      5-min Rain = 0
KMD1 141019Z 14008KT 23/19 A2997 RMK A01 T02300190  RH  078%=      5-min Rain = 0
KMD1 141020Z 14008KT 23/19 A2997 RMK A01 T02290190  RH  078%=      5-min Rain = 0
KMD1 141021Z 15008KT 23/19 A2997 RMK A01 T02290190  RH  078%=      5-min Rain = 0
KMD1 141022Z 14007KT 23/19 A2997 RMK A01 T02290190  RH  079%=      5-min Rain = 0
KMD1 141023Z 15007KT 23/19 A2997 RMK A01 T02290190  RH  079%=      5-min Rain = 0
KMD1 141024Z 15009KT 23/19 A2997 RMK A01 T02290190  RH  079%=      5-min Rain = 0
KMD1 141025Z 15008KT 23/19 A2997 RMK A01 T02280190  RH  079%=      5-min Rain = 0
KMD1 141026Z 14006KT 23/19 A2997 RMK A01 T02280190  RH  079%=      5-min Rain = 0
KMD1 141027Z 15006KT 23/19 A2997 RMK A01 T02280190  RH  079%=      5-min Rain = 0
KMD1 141028Z 14006KT 23/19 A2997 RMK A01 T02280190  RH  079%=      5-min Rain = 0
KMD1 141029Z 14008KT 23/19 A2997 RMK A01 T02270189  RH  079%=      5-min Rain = 0
KMD1 141030Z 15007KT 23/19 A2997 RMK A01 T02270190  RH  079%=      5-min Rain = 0
KMD1 141031Z 15007KT 23/19 A2997 RMK A01 T02270190  RH  079%=      5-min Rain = 0
KMD1 141032Z 15007KT 23/19 A2997 RMK A01 T02270190  RH  079%=      5-min Rain = 0
KMD1 141033Z 14008KT 23/19 A2997 RMK A01 T02270190  RH  079%=      5-min Rain = 0
KMD1 141034Z 16009KT 23/19 A2997 RMK A01 T02270190  RH  079%=      5-min Rain = 0
KMD1 141035Z 16008KT 23/19 A2997 RMK A01 T02270190  RH  080%=      5-min Rain = 0
KMD1 141036Z 14006KT 23/19 A2997 RMK A01 T02270190  RH  080%=      5-min Rain = 0
KMD1 141037Z 14007G12KT 23/19 A2997 RMK A01 T02260189  RH  080%=      5-min Rain = 0
KMD1 141038Z 15008KT 23/19 A2997 RMK A01 T02260190  RH  080%=      5-min Rain = 0
KMD1 141039Z 15007KT 23/19 A2997 RMK A01 T02270190  RH  080%=      5-min Rain = 0
KMD1 141040Z 16006KT 23/19 A2997 RMK A01 T02270190  RH  080%=      5-min Rain = 0
KMD1 141041Z 16007KT 23/19 A2997 RMK A01 T02260190  RH  080%=      5-min Rain = 0
KMD1 141042Z 15006KT 23/19 A2997 RMK A01 T02260190  RH  080%=      5-min Rain = 0
KMD1 141043Z 15006KT 23/19 A2997 RMK A01 T02260190  RH  080%=      5-min Rain = 0
KMD1 141044Z 15008KT 23/19 A2997 RMK A01 T02260189  RH  080%=      5-min Rain = 0
KMD1 141045Z 15009KT 23/19 A2997 RMK A01 T02260190  RH  080%=      5-min Rain = 0
KMD1 141046Z 15009KT 23/19 A2997 RMK A01 T02260189  RH  080%=      5-min Rain = 0
KMD1 141047Z 15007KT 23/19 A2997 RMK A01 T02260189  RH  080%=      5-min Rain = 0
KMD1 141048Z 15009KT 23/19 A2997 RMK A01 T02260189  RH  080%=      5-min Rain = 0
KMD1 141049Z 15008KT 23/19 A2997 RMK A01 T02260190  RH  080%=      5-min Rain = 0
KMD1 141050Z 16006KT 23/19 A2998 RMK A01 T02260189  RH  080%=      5-min Rain = 0
KMD1 141051Z 15007KT 23/19 A2998 RMK A01 T02260190  RH  080%=      5-min Rain = 0
KMD1 141052Z 15008KT 23/19 A2998 RMK A01 T02260189  RH  080%=      5-min Rain = 0
KMD1 141053Z 16009KT 23/19 A2997 RMK A01 T02260189  RH  080%=      5-min Rain = 0
KMD1 141054Z 16007KT 23/19 A2997 RMK A01 T02260190  RH  080%=      5-min Rain = 0
KMD1 141055Z 16006KT 23/19 A2998 RMK A01 T02260190  RH  080%=      5-min Rain = 0
KMD1 141056Z 16008KT 23/19 A2998 RMK A01 T02260190  RH  080%=      5-min Rain = 0
KMD1 141057Z 16007KT 23/19 A2998 RMK A01 T02250189  RH  080%=      5-min Rain = 0
KMD1 141058Z 15007KT 23/19 A2998 RMK A01 T02250189  RH  080%=      5-min Rain = 0
KMD1 141059Z 16006KT 23/19 A2998 RMK A01 T02250189  RH  080%=      5-min Rain = 0
KMD1 141100Z 15006KT 23/19 A2998 RMK A01 T02250189  RH  080%=      5-min Rain = 0
KMD1 141101Z 16006KT 23/19 A2998 RMK A01 T02250189  RH  080%=      5-min Rain = 0
KMD1 141102Z 16006KT 22/19 A2998 RMK A01 T02240189  RH  080%=      5-min Rain = 0
KMD1 141103Z 16008KT 22/19 A2998 RMK A01 T02240189  RH  080%=      5-min Rain = 0
KMD1 141104Z 16008KT 22/19 A2998 RMK A01 T02240189  RH  081%=      5-min Rain = 0
KMD1 141105Z 16008KT 22/19 A2998 RMK A01 T02240189  RH  080%=      5-min Rain = 0
KMD1 141106Z 16008KT 22/19 A2998 RMK A01 T02240189  RH  080%=      5-min Rain = 0
KMD1 141107Z 16007KT 22/19 A2998 RMK A01 T02240189  RH  080%=      5-min Rain = 0
KMD1 141108Z 17008KT 22/19 A2998 RMK A01 T02240189  RH  080%=      5-min Rain = 0
KMD1 141109Z 17006KT 22/19 A2998 RMK A01 T02240188  RH  080%=      5-min Rain = 0
KMD1 141110Z 16007KT 22/19 A2998 RMK A01 T02240188  RH  080%=      5-min Rain = 0
KMD1 141111Z 16007KT 22/19 A2998 RMK A01 T02240188  RH  080%=      5-min Rain = 0
KMD1 141112Z 16006KT 22/19 A2998 RMK A01 T02240188  RH  080%=      5-min Rain = 0
KMD1 141113Z 16005KT 22/19 A2998 RMK A01 T02240189  RH  081%=      5-min Rain = 0
KMD1 141114Z 16005KT 22/19 A2998 RMK A01 T02230188  RH  081%=      5-min Rain = 0
KMD1 141115Z 17006KT 22/19 A2998 RMK A01 T02230189  RH  081%=      5-min Rain = 0
KMD1 141116Z 17006KT 22/19 A2998 RMK A01 T02230189  RH  081%=      5-min Rain = 0
KMD1 141117Z 17007KT 22/19 A2998 RMK A01 T02230189  RH  081%=      5-min Rain = 0
KMD1 141118Z 15006KT 22/19 A2998 RMK A01 T02230188  RH  081%=      5-min Rain = 0
KMD1 141119Z 16007KT 22/19 A2998 RMK A01 T02230188  RH  081%=      5-min Rain = 0
KMD1 141120Z 17008KT 22/19 A2998 RMK A01 T02230188  RH  081%=      5-min Rain = 0
KMD1 141121Z 16009KT 22/19 A2998 RMK A01 T02230188  RH  081%=      5-min Rain = 0
KMD1 141122Z 16008KT 22/19 A2998 RMK A01 T02230188  RH  081%=      5-min Rain = 0
KMD1 141123Z 16007KT 22/19 A2998 RMK A01 T02230188  RH  081%=      5-min Rain = 0
KMD1 141124Z 16009KT 22/19 A2998 RMK A01 T02230188  RH  081%=      5-min Rain = 0
KMD1 141125Z 16009KT 22/19 A2998 RMK A01 T02230188  RH  081%=      5-min Rain = 0
KMD1 141126Z 17008KT 22/19 A2998 RMK A01 T02230188  RH  081%=      5-min Rain = 0
KMD1 141127Z 17007KT 22/19 A2998 RMK A01 T02230188  RH  081%=      5-min Rain = 0
KMD1 141128Z 17006KT 22/19 A2998 RMK A01 T02220188  RH  081%=      5-min Rain = 0
KMD1 141129Z 16006KT 22/19 A2998 RMK A01 T02220188  RH  081%=      5-min Rain = 0
KMD1 141130Z 17007KT 22/19 A2998 RMK A01 T02230188  RH  081%=      5-min Rain = 0
KMD1 141131Z 16008KT 22/19 A2998 RMK A01 T02220188  RH  081%=      5-min Rain = 0
KMD1 141132Z 17009KT 22/19 A2998 RMK A01 T02220188  RH  081%=      5-min Rain = 0
KMD1 141133Z 17006KT 22/19 A2998 RMK A01 T02220188  RH  081%=      5-min Rain = 0
KMD1 141134Z 17008KT 22/19 A2998 RMK A01 T02220188  RH  081%=      5-min Rain = 0
KMD1 141135Z 17009KT 22/19 A2998 RMK A01 T02220188  RH  081%=      5-min Rain = 0
KMD1 141136Z 17009KT 22/19 A2998 RMK A01 T02210188  RH  081%=      5-min Rain = 0
KMD1 141137Z 18009KT 22/19 A2998 RMK A01 T02220188  RH  081%=      5-min Rain = 0
KMD1 141138Z 18007KT 22/19 A2998 RMK A01 T02220188  RH  081%=      5-min Rain = 0
KMD1 141139Z 17006KT 22/19 A2998 RMK A01 T02220188  RH  081%=      5-min Rain = 0
KMD1 141140Z 17006KT 22/19 A2998 RMK A01 T02220188  RH  081%=      5-min Rain = 0
KMD1 141141Z 18005KT 22/19 A2998 RMK A01 T02220188  RH  081%=      5-min Rain = 0
KMD1 141142Z 18006KT 22/19 A2998 RMK A01 T02210188  RH  081%=      5-min Rain = 0
KMD1 141143Z 17006KT 22/19 A2998 RMK A01 T02210188  RH  081%=      5-min Rain = 0
KMD1 141144Z 17005KT 22/19 A2998 RMK A01 T02210188  RH  081%=      5-min Rain = 0
KMD1 141145Z 17007KT 22/19 A2998 RMK A01 T02200188  RH  082%=      5-min Rain = 0
KMD1 141146Z 17006KT 22/19 A2998 RMK A01 T02210188  RH  082%=      5-min Rain = 0
KMD1 141147Z 18005KT 22/19 A2998 RMK A01 T02210187  RH  081%=      5-min Rain = 0
KMD1 141148Z 17005KT 22/19 A2998 RMK A01 T02210187  RH  081%=      5-min Rain = 0
KMD1 141149Z 17006KT 22/19 A2998 RMK A01 T02210187  RH  081%=      5-min Rain = 0
KMD1 141150Z 17007KT 22/19 A2998 RMK A01 T02200187  RH  082%=      5-min Rain = 0
KMD1 141151Z 17008KT 22/19 A2998 RMK A01 T02200187  RH  082%=      5-min Rain = 0
KMD1 141152Z 17009KT 22/19 A2998 RMK A01 T02200187  RH  081%=      5-min Rain = 0
KMD1 141153Z 19006KT 22/19 A2998 RMK A01 T02200186  RH  081%=      5-min Rain = 0
KMD1 141154Z 19006KT 22/19 A2998 RMK A01 T02210187  RH  081%=      5-min Rain = 0
KMD1 141155Z 18005KT 22/19 A2999 RMK A01 T02210187  RH  081%=      5-min Rain = 0
KMD1 141156Z 19005KT 22/19 A2999 RMK A01 T02210187  RH  081%=      5-min Rain = 0
KMD1 141157Z 17007KT 22/19 A2999 RMK A01 T02210186  RH  081%=      5-min Rain = 0
KMD1 141158Z 18005KT 22/19 A2999 RMK A01 T02200186  RH  081%=      5-min Rain = 0
KMD1 141159Z 18006KT 22/19 A2999 RMK A01 T02210187  RH  081%=      5-min Rain = 0
KMD1 141200Z 18005KT 22/19 A2999 RMK A01 T02210187  RH  081%=      5-min Rain = 0
KMD1 141201Z 19004KT 22/19 A2999 RMK A01 T02210186  RH  081%=      5-min Rain = 0
KMD1 141202Z 19004KT 22/19 A2999 RMK A01 T02210187  RH  081%=      5-min Rain = 0
KMD1 141203Z 17008KT 22/19 A2999 RMK A01 T02210187  RH  081%=      5-min Rain = 0
KMD1 141204Z 18010KT 22/19 A2999 RMK A01 T02210186  RH  081%=      5-min Rain = 0
KMD1 141205Z 19007KT 22/19 A2999 RMK A01 T02210186  RH  081%=      5-min Rain = 0
KMD1 141206Z 19009KT 22/19 A2999 RMK A01 T02210186  RH  080%=      5-min Rain = 0
KMD1 141207Z 18008KT 22/19 A2999 RMK A01 T02210185  RH  080%=      5-min Rain = 0
KMD1 141208Z 18008KT 22/19 A2999 RMK A01 T02210185  RH  080%=      5-min Rain = 0
KMD1 141209Z 18007KT 22/19 A2999 RMK A01 T02220186  RH  080%=      5-min Rain = 0
KMD1 141210Z 18007KT 22/19 A2999 RMK A01 T02220186  RH  080%=      5-min Rain = 0
KMD1 141211Z 18008KT 22/19 A2999 RMK A01 T02220186  RH  080%=      5-min Rain = 0
KMD1 141212Z 17007KT 22/19 A2999 RMK A01 T02220186  RH  080%=      5-min Rain = 0
KMD1 141213Z 17006KT 22/19 A2999 RMK A01 T02220186  RH  080%=      5-min Rain = 0
KMD1 141214Z 17006KT 22/19 A2999 RMK A01 T02220186  RH  080%=      5-min Rain = 0
KMD1 141215Z 17006KT 22/19 A2999 RMK A01 T02210186  RH  080%=      5-min Rain = 0
KMD1 141216Z 16007KT 22/19 A2999 RMK A01 T02220186  RH  080%=      5-min Rain = 0
KMD1 141217Z 17006KT 22/19 A2999 RMK A01 T02220186  RH  080%=      5-min Rain = 0
KMD1 141218Z 17008KT 22/19 A2999 RMK A01 T02220186  RH  080%=      5-min Rain = 0
KMD1 141219Z 17009KT 22/19 A2999 RMK A01 T02220186  RH  080%=      5-min Rain = 0
KMD1 141220Z 17007KT 22/19 A30 RMK A01 T02210185  RH  080%=      5-min Rain = 0
KMD1 141221Z 17008KT 22/19 A30 RMK A01 T02220186  RH  080%=      5-min Rain = 0
KMD1 141222Z 18009KT 22/19 A2999 RMK A01 T02220186  RH  080%=      5-min Rain = 0
KMD1 141223Z 16007KT 22/19 A2999 RMK A01 T02220186  RH  080%=      5-min Rain = 0
KMD1 141224Z 16006KT 22/19 A2999 RMK A01 T02220186  RH  080%=      5-min Rain = 0
KMD1 141225Z 17008KT 22/19 A2999 RMK A01 T02220186  RH  080%=      5-min Rain = 0
KMD1 141226Z 17011KT 22/19 A2999 RMK A01 T02220186  RH  080%=      5-min Rain = 0
KMD1 141227Z 17009KT 22/19 A2999 RMK A01 T02220186  RH  080%=      5-min Rain = 0
KMD1 141228Z 16006KT 22/19 A30 RMK A01 T02230186  RH  080%=      5-min Rain = 0
KMD1 141229Z 16008KT 22/19 A30 RMK A01 T02220186  RH  080%=      5-min Rain = 0
KMD1 141230Z 17010KT 22/19 A30 RMK A01 T02220186  RH  080%=      5-min Rain = 0
KMD1 141231Z 17007KT 22/19 A30 RMK A01 T02220186  RH  080%=      5-min Rain = 0
KMD1 141232Z 17007KT 22/19 A30 RMK A01 T02230186  RH  080%=      5-min Rain = 0
KMD1 141233Z 17007KT 22/19 A30 RMK A01 T02230186  RH  080%=      5-min Rain = 0
KMD1 141234Z 17009KT 22/19 A30 RMK A01 T02230186  RH  080%=      5-min Rain = 0
KMD1 141235Z 17008KT 22/19 A30 RMK A01 T02230186  RH  080%=      5-min Rain = 0
KMD1 141236Z 17007KT 22/19 A30 RMK A01 T02230186  RH  080%=      5-min Rain = 0
KMD1 141237Z 17009KT 22/19 A30 RMK A01 T02230186  RH  080%=      5-min Rain = 0
KMD1 141238Z 16008KT 22/19 A30 RMK A01 T02230186  RH  079%=      5-min Rain = 0
KMD1 141239Z 15008KT 22/19 A30 RMK A01 T02230186  RH  079%=      5-min Rain = 0
KMD1 141240Z 16007KT 22/19 A30 RMK A01 T02230186  RH  080%=      5-min Rain = 0
KMD1 141241Z 16007KT 22/19 A30 RMK A01 T02240187  RH  079%=      5-min Rain = 0
KMD1 141242Z 16007KT 22/19 A30 RMK A01 T02240187  RH  079%=      5-min Rain = 0
KMD1 141243Z 16010KT 22/19 A30 RMK A01 T02240186  RH  079%=      5-min Rain = 0
KMD1 141244Z 17009KT 22/19 A30 RMK A01 T02240186  RH  079%=      5-min Rain = 0
KMD1 141245Z 16009KT 22/19 A30 RMK A01 T02240187  RH  079%=      5-min Rain = 0
KMD1 141246Z 16008KT 22/19 A30 RMK A01 T02240186  RH  079%=      5-min Rain = 0
KMD1 141247Z 16008KT 22/19 A30 RMK A01 T02240187  RH  079%=      5-min Rain = 0
KMD1 141248Z 16009KT 22/19 A30 RMK A01 T02240187  RH  079%=      5-min Rain = 0
KMD1 141249Z 16009KT 23/19 A30 RMK A01 T02250187  RH  079%=      5-min Rain = 0
KMD1 141250Z 16008KT 23/19 A30 RMK A01 T02250187  RH  079%=      5-min Rain = 0
KMD1 141251Z 16010KT 23/19 A30 RMK A01 T02250187  RH  079%=      5-min Rain = 0
KMD1 141252Z 16008KT 23/19 A30 RMK A01 T02250187  RH  079%=      5-min Rain = 0
KMD1 141253Z 17008KT 23/19 A30 RMK A01 T02250187  RH  079%=      5-min Rain = 0
KMD1 141254Z 16007KT 23/19 A30 RMK A01 T02250187  RH  079%=      5-min Rain = 0
KMD1 141255Z 16008KT 23/19 A30 RMK A01 T02250187  RH  079%=      5-min Rain = 0
KMD1 141256Z 17008KT 23/19 A30 RMK A01 T02250187  RH  079%=      5-min Rain = 0
KMD1 141257Z 16008KT 23/19 A30 RMK A01 T02260187  RH  079%=      5-min Rain = 0
KMD1 141258Z 17008KT 23/19 A30 RMK A01 T02260187  RH  079%=      5-min Rain = 0
KMD1 141259Z 16008KT 23/19 A30 RMK A01 T02260187  RH  079%=      5-min Rain = 0
KMD1 141300Z 17007KT 23/19 A30 RMK A01 T02250187  RH  079%=      5-min Rain = 0
KMD1 141301Z 17010KT 23/19 A30 RMK A01 T02260187  RH  079%=      5-min Rain = 0
KMD1 141302Z 16010KT 23/19 A30 RMK A01 T02260187  RH  079%=      5-min Rain = 0
KMD1 141303Z 16011KT 23/19 A30 RMK A01 T02250187  RH  079%=      5-min Rain = 0
KMD1 141304Z 17011KT 23/19 A30 RMK A01 T02260187  RH  079%=      5-min Rain = 0
KMD1 141305Z 16009KT 23/19 A30 RMK A01 T02260187  RH  078%=      5-min Rain = 0
KMD1 141306Z 17010KT 23/19 A30 RMK A01 T02260187  RH  078%=      5-min Rain = 0
KMD1 141307Z 16009KT 23/19 A30 RMK A01 T02260187  RH  078%=      5-min Rain = 0
KMD1 141308Z 16010KT 23/19 A30 RMK A01 T02270187  RH  078%=      5-min Rain = 0
KMD1 141309Z 17008KT 23/19 A30 RMK A01 T02270187  RH  078%=      5-min Rain = 0
KMD1 141310Z 17009KT 23/19 A30 RMK A01 T02270187  RH  078%=      5-min Rain = 0
KMD1 141311Z 17008KT 23/19 A30 RMK A01 T02270187  RH  078%=      5-min Rain = 0
KMD1 141312Z 18008KT 23/19 A30 RMK A01 T02270188  RH  078%=      5-min Rain = 0
KMD1 141313Z 17008KT 23/19 A30 RMK A01 T02270187  RH  078%=      5-min Rain = 0
KMD1 141314Z 16008KT 23/19 A30 RMK A01 T02280188  RH  078%=      5-min Rain = 0
KMD1 141315Z 16009KT 23/19 A30 RMK A01 T02280187  RH  078%=      5-min Rain = 0
KMD1 141316Z 15012KT 23/19 A30 RMK A01 T02280188  RH  078%=      5-min Rain = 0
KMD1 141317Z 16011KT 23/19 A30 RMK A01 T02280187  RH  078%=      5-min Rain = 0
KMD1 141318Z 16010KT 23/19 A30 RMK A01 T02280187  RH  078%=      5-min Rain = 0
KMD1 141319Z 16008KT 23/19 A30 RMK A01 T02280188  RH  078%=      5-min Rain = 0
KMD1 141320Z 16007KT 23/19 A30 RMK A01 T02280188  RH  078%=      5-min Rain = 0
KMD1 141321Z 16008KT 23/19 A30 RMK A01 T02290188  RH  078%=      5-min Rain = 0
KMD1 141322Z 16008KT 23/19 A30 RMK A01 T02280188  RH  078%=      5-min Rain = 0
KMD1 141323Z 16009KT 23/19 A30 RMK A01 T02280187  RH  078%=      5-min Rain = 0
KMD1 141324Z 15010KT 23/19 A30 RMK A01 T02290188  RH  078%=      5-min Rain = 0
KMD1 141325Z 16010KT 23/19 A30 RMK A01 T02280188  RH  078%=      5-min Rain = 0
KMD1 141326Z 17009KT 23/19 A30 RMK A01 T02280188  RH  078%=      5-min Rain = 0
KMD1 141327Z 16011KT 23/19 A30 RMK A01 T02280188  RH  078%=      5-min Rain = 0
KMD1 141328Z 16012KT 23/19 A30 RMK A01 T02280188  RH  078%=      5-min Rain = 0
KMD1 141329Z 16011KT 23/19 A30 RMK A01 T02280188  RH  078%=      5-min Rain = 0
KMD1 141330Z 16010KT 23/19 A30 RMK A01 T02290188  RH  078%=      5-min Rain = 0
KMD1 141331Z 16008KT 23/19 A30 RMK A01 T02290188  RH  078%=      5-min Rain = 0
KMD1 141332Z 16009KT 23/19 A30 RMK A01 T02290188  RH  078%=      5-min Rain = 0
KMD1 141333Z 15009KT 23/19 A30 RMK A01 T02290188  RH  077%=      5-min Rain = 0
KMD1 141334Z 16008KT 23/19 A30 RMK A01 T02290188  RH  078%=      5-min Rain = 0
KMD1 141335Z 16009KT 23/19 A30 RMK A01 T02300188  RH  077%=      5-min Rain = 0
KMD1 141336Z 16007KT 23/19 A30 RMK A01 T02300188  RH  077%=      5-min Rain = 0
KMD1 141337Z 16008KT 23/19 A30 RMK A01 T02300189  RH  077%=      5-min Rain = 0
KMD1 141338Z 18008KT 23/19 A30 RMK A01 T02310189  RH  077%=      5-min Rain = 0
KMD1 141339Z 17009KT 23/19 A30 RMK A01 T02310188  RH  077%=      5-min Rain = 0
KMD1 141340Z 16008KT 23/19 A30 RMK A01 T02310188  RH  077%=      5-min Rain = 0
KMD1 141341Z 16011KT 23/19 A30 RMK A01 T02310188  RH  076%=      5-min Rain = 0
KMD1 141342Z 15013KT 23/19 A30 RMK A01 T02310188  RH  076%=      5-min Rain = 0
KMD1 141343Z 15012KT 23/19 A30 RMK A01 T02320188  RH  076%=      5-min Rain = 0
KMD1 141344Z 16012KT 23/19 A30 RMK A01 T02330188  RH  076%=      5-min Rain = 0
KMD1 141345Z 15014KT 23/19 A30 RMK A01 T02330188  RH  075%=      5-min Rain = 0
KMD1 141346Z 16013KT 24/19 A30 RMK A01 T02350188  RH  075%=      5-min Rain = 0
KMD1 141347Z 16011KT 24/19 A3001 RMK A01 T02360188  RH  075%=      5-min Rain = 0
KMD1 141348Z 17012KT 24/19 A30 RMK A01 T02360189  RH  075%=      5-min Rain = 0
KMD1 141349Z 17013KT 24/19 A30 RMK A01 T02360188  RH  074%=      5-min Rain = 0
KMD1 141350Z 16016KT 24/19 A30 RMK A01 T02370188  RH  074%=      5-min Rain = 0
KMD1 141351Z 15014KT 24/19 A30 RMK A01 T02360188  RH  074%=      5-min Rain = 0
KMD1 141352Z 17012KT 24/19 A30 RMK A01 T02360189  RH  075%=      5-min Rain = 0
KMD1 141353Z 17014KT 24/19 A30 RMK A01 T02360188  RH  075%=      5-min Rain = 0
KMD1 141354Z 18013KT 24/19 A30 RMK A01 T02360188  RH  074%=      5-min Rain = 0
KMD1 141355Z 16009KT 24/19 A30 RMK A01 T02370190  RH  075%=      5-min Rain = 0
KMD1 141356Z 15011KT 24/19 A30 RMK A01 T02390190  RH  074%=      5-min Rain = 0
KMD1 141357Z 17013KT 24/19 A30 RMK A01 T02410189  RH  073%=      5-min Rain = 0
KMD1 141358Z 15011KT 24/19 A30 RMK A01 T02410190  RH  073%=      5-min Rain = 0
KMD1 141359Z 17011KT 24/19 A30 RMK A01 T02400189  RH  073%=      5-min Rain = 0
KMD1 141400Z 16010KT 24/19 A30 RMK A01 T02400190  RH  074%=      5-min Rain = 0
KMD1 141401Z 16012G17KT 24/19 A30 RMK A01 T02390189  RH  073%=      5-min Rain = 0
KMD1 141402Z 17013KT 24/19 A30 RMK A01 T02390188  RH  073%=      5-min Rain = 0
KMD1 141403Z 17013KT 24/19 A3001 RMK A01 T02390189  RH  074%=      5-min Rain = 0
KMD1 141404Z 18016KT 24/19 A30 RMK A01 T02380189  RH  074%=      5-min Rain = 0
KMD1 141405Z 17013KT 24/19 A3001 RMK A01 T02370188  RH  074%=      5-min Rain = 0
KMD1 141406Z 17013KT 24/19 A3001 RMK A01 T02370188  RH  074%=      5-min Rain = 0
KMD1 141407Z 17014KT 24/19 A3001 RMK A01 T02370189  RH  074%=      5-min Rain = 0
KMD1 141408Z 16011KT 24/19 A3001 RMK A01 T02370189  RH  074%=      5-min Rain = 0
KMD1 141409Z 17012KT 24/19 A3001 RMK A01 T02370188  RH  074%=      5-min Rain = 0
KMD1 141410Z 17013KT 24/19 A3001 RMK A01 T02370188  RH  074%=      5-min Rain = 0
KMD1 141411Z 17015KT 24/19 A3001 RMK A01 T02370188  RH  074%=      5-min Rain = 0
KMD1 141412Z 17013KT 24/19 A3001 RMK A01 T02370188  RH  074%=      5-min Rain = 0
KMD1 141413Z 17011KT 24/19 A3001 RMK A01 T02370188  RH  074%=      5-min Rain = 0
KMD1 141414Z 17013KT 24/19 A3001 RMK A01 T02370188  RH  074%=      5-min Rain = 0
KMD1 141415Z 16008KT 24/19 A3001 RMK A01 T02370188  RH  074%=      5-min Rain = 0
KMD1 141416Z 17008KT 24/19 A3001 RMK A01 T02370188  RH  074%=      5-min Rain = 0
KMD1 141417Z 17009KT 24/19 A3001 RMK A01 T02380188  RH  074%=      5-min Rain = 0
KMD1 141418Z 16009KT 24/19 A3001 RMK A01 T02390189  RH  074%=      5-min Rain = 0
KMD1 141419Z 18009KT 24/19 A3001 RMK A01 T02390188  RH  073%=      5-min Rain = 0
KMD1 141420Z 18010KT 24/19 A3001 RMK A01 T02390188  RH  073%=      5-min Rain = 0
KMD1 141421Z 18012KT 24/19 A3002 RMK A01 T02390188  RH  073%=      5-min Rain = 0
KMD1 141422Z 18013KT 24/19 A3001 RMK A01 T02380187  RH  073%=      5-min Rain = 0
KMD1 141423Z 17012KT 24/19 A3001 RMK A01 T02380187  RH  073%=      5-min Rain = 0
KMD1 141424Z 17010KT 24/19 A3002 RMK A01 T02370187  RH  074%=      5-min Rain = 0
KMD1 141425Z 18011KT 24/19 A3002 RMK A01 T02370187  RH  073%=      5-min Rain = 0
KMD1 141426Z 17011KT 24/19 A3002 RMK A01 T02370187  RH  073%=      5-min Rain = 0
KMD1 141427Z 15009KT 24/19 A3002 RMK A01 T02370187  RH  073%=      5-min Rain = 0
KMD1 141428Z 17010KT 24/19 A3002 RMK A01 T02370188  RH  074%=      5-min Rain = 0
KMD1 141429Z 17009KT 24/19 A3002 RMK A01 T02380188  RH  073%=      5-min Rain = 0
KMD1 141430Z 17010KT 24/19 A3002 RMK A01 T02380188  RH  073%=      5-min Rain = 0
KMD1 141431Z 16009KT 24/19 A3002 RMK A01 T02390188  RH  073%=      5-min Rain = 0
KMD1 141432Z 15012KT 24/19 A3002 RMK A01 T02390188  RH  073%=      5-min Rain = 0
KMD1 141433Z 15010KT 24/19 A3002 RMK A01 T02400188  RH  073%=      5-min Rain = 0
KMD1 141434Z 15010KT 24/19 A3002 RMK A01 T02400188  RH  073%=      5-min Rain = 0
KMD1 141435Z 15011KT 24/19 A3002 RMK A01 T02400188  RH  072%=      5-min Rain = 0
KMD1 141436Z 16009KT 24/19 A3002 RMK A01 T02410188  RH  072%=      5-min Rain = 0
KMD1 141437Z 16008KT 24/19 A3001 RMK A01 T02410188  RH  072%=      5-min Rain = 0
KMD1 141438Z 17007KT 24/19 A3002 RMK A01 T02410188  RH  072%=      5-min Rain = 0
KMD1 141439Z 16007KT 24/19 A3002 RMK A01 T02420188  RH  072%=      5-min Rain = 0
KMD1 141440Z 17006KT 24/19 A3002 RMK A01 T02430189  RH  072%=      5-min Rain = 0
KMD1 141441Z 16011G16KT 24/19 A3002 RMK A01 T02440189  RH  071%=      5-min Rain = 0
KMD1 141442Z 16012KT 24/19 A3002 RMK A01 T02440188  RH  071%=      5-min Rain = 0
KMD1 141443Z 16010KT 24/19 A3002 RMK A01 T02440189  RH  071%=      5-min Rain = 0
KMD1 141444Z 16007KT 24/19 A3002 RMK A01 T02440189  RH  071%=      5-min Rain = 0
KMD1 141445Z 16009KT 24/19 A3002 RMK A01 T02440189  RH  071%=      5-min Rain = 0
KMD1 141446Z 16010KT 25/19 A3002 RMK A01 T02450189  RH  071%=      5-min Rain = 0
KMD1 141447Z 16010KT 24/19 A3002 RMK A01 T02440188  RH  071%=      5-min Rain = 0
KMD1 141448Z 17011KT 24/19 A3002 RMK A01 T02440188  RH  071%=      5-min Rain = 0
KMD1 141449Z 17010KT 24/19 A3002 RMK A01 T02440189  RH  071%=      5-min Rain = 0
KMD1 141450Z 16011KT 25/19 A3002 RMK A01 T02460189  RH  071%=      5-min Rain = 0
KMD1 141451Z 16011KT 25/19 A3002 RMK A01 T02470188  RH  069%=      5-min Rain = 0
KMD1 141452Z 17010KT 25/19 A3002 RMK A01 T02470189  RH  070%=      5-min Rain = 0
KMD1 141453Z 17008KT 25/19 A3002 RMK A01 T02470190  RH  070%=      5-min Rain = 0
KMD1 141454Z 16009KT 25/19 A3002 RMK A01 T02480190  RH  070%=      5-min Rain = 0
KMD1 141455Z 15009KT 25/19 A3002 RMK A01 T02490189  RH  069%=      5-min Rain = 0
KMD1 141456Z 16014KT 25/19 A3002 RMK A01 T02500188  RH  068%=      5-min Rain = 0
KMD1 141457Z 18012KT 25/19 A3002 RMK A01 T02490188  RH  069%=      5-min Rain = 0
KMD1 141458Z 17013KT 25/19 A3002 RMK A01 T02490188  RH  069%=      5-min Rain = 0
KMD1 141459Z 17011KT 25/19 A3002 RMK A01 T02480188  RH  069%=      5-min Rain = 0
KMD1 141500Z 17010KT 25/19 A3002 RMK A01 T02480188  RH  069%=      5-min Rain = 0
KMD1 141501Z 19011G16KT 25/19 A3002 RMK A01 T02490186  RH  068%=      5-min Rain = 0
KMD1 141502Z 19010KT 25/19 A3002 RMK A01 T02500186  RH  068%=      5-min Rain = 0
KMD1 141503Z 18009KT 25/19 A3002 RMK A01 T02510188  RH  068%=      5-min Rain = 0
KMD1 141504Z 19009KT 25/19 A3001 RMK A01 T02540188  RH  067%=      5-min Rain = 0
KMD1 141505Z 18008KT 26/19 A3002 RMK A01 T02560189  RH  066%=      5-min Rain = 0
KMD1 141506Z 17008G14KT 26/19 A3002 RMK A01 T02570189  RH  066%=      5-min Rain = 0
KMD1 141507Z 18011KT 26/19 A3001 RMK A01 T02580188  RH  065%=      5-min Rain = 0
KMD1 141508Z 16009G14KT 26/19 A3001 RMK A01 T02580189  RH  066%=      5-min Rain = 0
KMD1 141509Z 17013KT 26/19 A3001 RMK A01 T02570188  RH  066%=      5-min Rain = 0
KMD1 141510Z 17013KT 26/19 A3001 RMK A01 T02560188  RH  066%=      5-min Rain = 0
KMD1 141511Z 18013KT 25/19 A3001 RMK A01 T02540188  RH  067%=      5-min Rain = 0
KMD1 141512Z 18012KT 25/19 A3002 RMK A01 T02530186  RH  067%=      5-min Rain = 0
KMD1 141513Z 17010KT 25/19 A3001 RMK A01 T02510187  RH  067%=      5-min Rain = 0
KMD1 141514Z 18012KT 25/19 A3002 RMK A01 T02510187  RH  068%=      5-min Rain = 0
KMD1 141515Z 17007KT 25/19 A3001 RMK A01 T02520186  RH  067%=      5-min Rain = 0
KMD1 141516Z 17009KT 25/19 A3001 RMK A01 T02540188  RH  067%=      5-min Rain = 0
KMD1 141517Z 15010KT 26/19 A3001 RMK A01 T02560187  RH  066%=      5-min Rain = 0
KMD1 141518Z 17012KT 26/19 A3001 RMK A01 T02560188  RH  066%=      5-min Rain = 0
KMD1 141519Z 18011KT 26/19 A3001 RMK A01 T02570188  RH  066%=      5-min Rain = 0
KMD1 141520Z 18011KT 26/19 A3001 RMK A01 T02560187  RH  066%=      5-min Rain = 0
KMD1 141521Z 17010KT 26/19 A3001 RMK A01 T02550186  RH  066%=      5-min Rain = 0
KMD1 141522Z 17010KT 25/19 A3001 RMK A01 T02540187  RH  066%=      5-min Rain = 0
KMD1 141523Z 17011KT 25/19 A3001 RMK A01 T02540188  RH  067%=      5-min Rain = 0
KMD1 141524Z 15011KT 26/19 A3001 RMK A01 T02570188  RH  066%=      5-min Rain = 0
KMD1 141525Z 15010KT 26/19 A3001 RMK A01 T02600187  RH  064%=      5-min Rain = 0
KMD1 141526Z 16012KT 26/19 A3001 RMK A01 T02600187  RH  064%=      5-min Rain = 0
KMD1 141527Z 19013KT 26/19 A3001 RMK A01 T02600188  RH  064%=      5-min Rain = 0
KMD1 141528Z 16014KT 26/19 A3001 RMK A01 T02580187  RH  065%=      5-min Rain = 0
KMD1 141529Z 17013KT 26/19 A3001 RMK A01 T02570187  RH  065%=      5-min Rain = 0
KMD1 141530Z 16014KT 26/19 A3001 RMK A01 T02570186  RH  065%=      5-min Rain = 0
KMD1 141531Z 16013KT 26/19 A3001 RMK A01 T02570187  RH  065%=      5-min Rain = 0
KMD1 141532Z 16013KT 26/19 A3001 RMK A01 T02560186  RH  065%=      5-min Rain = 0
KMD1 141533Z 17011KT 26/19 A3001 RMK A01 T02560187  RH  066%=      5-min Rain = 0
KMD1 141534Z 16009KT 26/19 A3001 RMK A01 T02570188  RH  066%=      5-min Rain = 0
KMD1 141535Z 16009KT 26/19 A3002 RMK A01 T02590188  RH  065%=      5-min Rain = 0
KMD1 141536Z 14015KT 26/19 A3001 RMK A01 T02600188  RH  064%=      5-min Rain = 0
KMD1 141537Z 16011G16KT 26/19 A3001 RMK A01 T02610188  RH  064%=      5-min Rain = 0
KMD1 141538Z 17011KT 26/19 A3001 RMK A01 T02610190  RH  065%=      5-min Rain = 0
KMD1 141539Z 18011KT 26/19 A3001 RMK A01 T02630187  RH  063%=      5-min Rain = 0
KMD1 141540Z 18012KT 26/19 A3002 RMK A01 T02620189  RH  064%=      5-min Rain = 0
KMD1 141541Z 18011KT 26/19 A3001 RMK A01 T02620186  RH  063%=      5-min Rain = 0
KMD1 141542Z 19011KT 26/19 A3001 RMK A01 T02610188  RH  064%=      5-min Rain = 0
KMD1 141543Z 19011KT 26/19 A3001 RMK A01 T02600188  RH  064%=      5-min Rain = 0
KMD1 141544Z 18015KT 26/19 A3001 RMK A01 T02600188  RH  064%=      5-min Rain = 0
KMD1 141545Z 18011KT 26/19 A3002 RMK A01 T02600188  RH  064%=      5-min Rain = 0
KMD1 141546Z 17014KT 26/19 A3002 RMK A01 T02610188  RH  064%=      5-min Rain = 0
KMD1 141547Z 18010KT 26/19 A3002 RMK A01 T02610187  RH  064%=      5-min Rain = 0
KMD1 141548Z 18012KT 26/19 A3002 RMK A01 T02600187  RH  064%=      5-min Rain = 0
KMD1 141549Z 18011KT 26/19 A3001 RMK A01 T02590188  RH  065%=      5-min Rain = 0
KMD1 141550Z 17012KT 26/19 A3001 RMK A01 T02600188  RH  064%=      5-min Rain = 0
KMD1 141551Z 16012KT 26/19 A3001 RMK A01 T02610188  RH  064%=      5-min Rain = 0
KMD1 141552Z 18013KT 26/19 A3001 RMK A01 T02620187  RH  063%=      5-min Rain = 0
KMD1 141553Z 18013KT 26/19 A3001 RMK A01 T02630186  RH  063%=      5-min Rain = 0
KMD1 141554Z 18011KT 26/19 A3001 RMK A01 T02620187  RH  063%=      5-min Rain = 0
KMD1 141555Z 18011KT 26/19 A3001 RMK A01 T02630187  RH  063%=      5-min Rain = 0
KMD1 141556Z 17012KT 27/19 A3001 RMK A01 T02650188  RH  063%=      5-min Rain = 0
KMD1 141557Z 17012KT 27/19 A3001 RMK A01 T02660186  RH  062%=      5-min Rain = 0
KMD1 141558Z 17012G19KT 27/19 A3001 RMK A01 T02650188  RH  063%=      5-min Rain = 0
KMD1 141559Z 17014KT 27/19 A3001 RMK A01 T02650186  RH  062%=      5-min Rain = 0
KMD1 141600Z 17014KT 27/19 A3001 RMK A01 T02650186  RH  062%=      5-min Rain = 0
KMD1 141601Z 18011KT 27/19 A3001 RMK A01 T02660187  RH  062%=      5-min Rain = 0
KMD1 141602Z 17011KT 27/19 A3001 RMK A01 T02670188  RH  062%=      5-min Rain = 0
KMD1 141603Z 17013KT 27/19 A3001 RMK A01 T02670188  RH  062%=      5-min Rain = 0
KMD1 141604Z 16011KT 27/19 A3002 RMK A01 T02670187  RH  062%=      5-min Rain = 0
KMD1 141605Z 16011KT 27/19 A3002 RMK A01 T02650188  RH  062%=      5-min Rain = 0
KMD1 141606Z 17009KT 27/19 A3002 RMK A01 T02650189  RH  063%=      5-min Rain = 0
KMD1 141607Z 16008KT 27/19 A3002 RMK A01 T02660188  RH  062%=      5-min Rain = 0
KMD1 141608Z 16012KT 27/19 A3002 RMK A01 T02680188  RH  062%=      5-min Rain = 0
KMD1 141609Z 16011KT 27/19 A3002 RMK A01 T02690188  RH  061%=      5-min Rain = 0
KMD1 141610Z 17009KT 27/19 A3002 RMK A01 T02690188  RH  061%=      5-min Rain = 0
KMD1 141611Z 16009KT 27/19 A3002 RMK A01 T02680189  RH  062%=      5-min Rain = 0
KMD1 141612Z 17010KT 27/19 A3002 RMK A01 T02680188  RH  062%=      5-min Rain = 0
KMD1 141613Z 17011KT 27/19 A3002 RMK A01 T02670188  RH  062%=      5-min Rain = 0
KMD1 141614Z 18008KT 27/19 A3002 RMK A01 T02660186  RH  062%=      5-min Rain = 0
KMD1 141615Z 19007KT 27/19 A3002 RMK A01 T02650187  RH  062%=      5-min Rain = 0
KMD1 141616Z 19010KT 26/19 A3002 RMK A01 T02640188  RH  063%=      5-min Rain = 0
KMD1 141617Z 16007KT 26/19 A3002 RMK A01 T02640187  RH  063%=      5-min Rain = 0
KMD1 141618Z 15010KT 26/19 A3002 RMK A01 T02640188  RH  063%=      5-min Rain = 0
KMD1 141619Z 15014KT 27/19 A3002 RMK A01 T02650186  RH  062%=      5-min Rain = 0
KMD1 141620Z 16015KT 27/19 A3002 RMK A01 T02650187  RH  062%=      5-min Rain = 0
KMD1 141621Z 16013KT 26/19 A3002 RMK A01 T02630187  RH  063%=      5-min Rain = 0
KMD1 141622Z 17010KT 26/19 A3002 RMK A01 T02620187  RH  063%=      5-min Rain = 0
KMD1 141623Z 17013KT 26/19 A3002 RMK A01 T02620187  RH  063%=      5-min Rain = 0
KMD1 141624Z 18011KT 26/19 A3002 RMK A01 T02620187  RH  063%=      5-min Rain = 0
KMD1 141625Z 18011KT 26/19 A3002 RMK A01 T02600188  RH  064%=      5-min Rain = 0
KMD1 141626Z 19009KT 26/19 A3002 RMK A01 T02600187  RH  064%=      5-min Rain = 0
KMD1 141627Z 18011KT 26/19 A3002 RMK A01 T02600186  RH  064%=      5-min Rain = 0
KMD1 141628Z 19009KT 26/19 A3002 RMK A01 T02590187  RH  064%=      5-min Rain = 0
KMD1 141629Z 19012KT 26/19 A3002 RMK A01 T02580186  RH  064%=      5-min Rain = 0
KMD1 141630Z 19012KT 26/19 A3002 RMK A01 T02580186  RH  064%=      5-min Rain = 0
KMD1 141631Z 18011KT 26/19 A3002 RMK A01 T02580186  RH  065%=      5-min Rain = 0
KMD1 141632Z 17009KT 26/19 A3002 RMK A01 T02570186  RH  065%=      5-min Rain = 0
KMD1 141633Z 17010KT 26/19 A3002 RMK A01 T02580186  RH  065%=      5-min Rain = 0
KMD1 141634Z 17009KT 26/19 A3002 RMK A01 T02590187  RH  064%=      5-min Rain = 0
KMD1 141635Z 17007KT 26/19 A3002 RMK A01 T02600187  RH  064%=      5-min Rain = 0
KMD1 141636Z 17010KT 26/19 A3002 RMK A01 T02620188  RH  064%=      5-min Rain = 0
KMD1 141637Z 18010KT 26/19 A3002 RMK A01 T02620187  RH  063%=      5-min Rain = 0
KMD1 141638Z 18011KT 26/19 A3002 RMK A01 T02620188  RH  064%=      5-min Rain = 0
KMD1 141639Z 18010KT 26/19 A3002 RMK A01 T02620188  RH  064%=      5-min Rain = 0
KMD1 141640Z 18011KT 26/19 A3002 RMK A01 T02610188  RH  064%=      5-min Rain = 0
KMD1 141641Z 17013KT 26/19 A3002 RMK A01 T02610188  RH  064%=      5-min Rain = 0
KMD1 141642Z 17011KT 26/19 A3002 RMK A01 T02610188  RH  064%=      5-min Rain = 0
KMD1 141643Z 17009KT 26/19 A3002 RMK A01 T02620189  RH  064%=      5-min Rain = 0
KMD1 141644Z 18011KT 27/19 A3002 RMK A01 T02660189  RH  063%=      5-min Rain = 0
KMD1 141645Z 18011KT 27/19 A3002 RMK A01 T02670189  RH  062%=      5-min Rain = 0
KMD1 141646Z 17011KT 27/19 A3002 RMK A01 T02650189  RH  063%=      5-min Rain = 0
KMD1 141647Z 17009KT 26/19 A3002 RMK A01 T02640188  RH  063%=      5-min Rain = 0
KMD1 141648Z 18011KT 26/19 A3002 RMK A01 T02640189  RH  063%=      5-min Rain = 0
KMD1 141649Z 17012KT 26/19 A3002 RMK A01 T02640188  RH  063%=      5-min Rain = 0
KMD1 141650Z 17012KT 26/19 A3002 RMK A01 T02640188  RH  063%=      5-min Rain = 0
KMD1 141651Z 17012KT 26/19 A3002 RMK A01 T02630188  RH  063%=      5-min Rain = 0
KMD1 141652Z 17010KT 26/19 A3002 RMK A01 T02620187  RH  064%=      5-min Rain = 0
KMD1 141653Z 17012KT 26/19 A3002 RMK A01 T02610188  RH  064%=      5-min Rain = 0
KMD1 141654Z 16010KT 26/19 A3002 RMK A01 T02620188  RH  064%=      5-min Rain = 0
KMD1 141655Z 15011KT 26/19 A3001 RMK A01 T02640188  RH  063%=      5-min Rain = 0
KMD1 141656Z 16012KT 27/19 A3001 RMK A01 T02650189  RH  063%=      5-min Rain = 0
KMD1 141657Z 16012KT 27/19 A3001 RMK A01 T02650189  RH  063%=      5-min Rain = 0
KMD1 141658Z 16014KT 27/19 A3001 RMK A01 T02660188  RH  062%=      5-min Rain = 0
KMD1 141659Z 18012KT 27/19 A3001 RMK A01 T02660189  RH  062%=      5-min Rain = 0
KMD1 141700Z 19012KT 27/19 A3001 RMK A01 T02660189  RH  063%=      5-min Rain = 0
KMD1 141701Z 19012KT 27/19 A3001 RMK A01 T02660188  RH  062%=      5-min Rain = 0
KMD1 141702Z 19013KT 27/19 A3001 RMK A01 T02650189  RH  063%=      5-min Rain = 0
KMD1 141703Z 18013KT 27/19 A3001 RMK A01 T02650188  RH  063%=      5-min Rain = 0
KMD1 141704Z 17008KT 27/19 A3001 RMK A01 T02650189  RH  063%=      5-min Rain = 0
KMD1 141705Z 16012KT 27/19 A3001 RMK A01 T02650188  RH  063%=      5-min Rain = 0
KMD1 141706Z 17013KT 27/19 A3001 RMK A01 T02680189  RH  062%=      5-min Rain = 0
KMD1 141707Z 17011KT 27/19 A3001 RMK A01 T02700188  RH  061%=      5-min Rain = 0
KMD1 141708Z 17012KT 27/19 A3001 RMK A01 T02690190  RH  062%=      5-min Rain = 0
KMD1 141709Z 16013KT 27/19 A3001 RMK A01 T02680189  RH  062%=      5-min Rain = 0
KMD1 141710Z 17013KT 27/19 A3001 RMK A01 T02670189  RH  062%=      5-min Rain = 0
KMD1 141711Z 16013KT 27/19 A3001 RMK A01 T02660188  RH  063%=      5-min Rain = 0
KMD1 141712Z 16013KT 27/19 A3001 RMK A01 T02650188  RH  063%=      5-min Rain = 0
KMD1 141713Z 17012KT 27/19 A3001 RMK A01 T02650188  RH  063%=      5-min Rain = 0
KMD1 141714Z 17015KT 27/19 A3001 RMK A01 T02670188  RH  062%=      5-min Rain = 0
KMD1 141715Z 16012KT 27/19 A3001 RMK A01 T02670188  RH  062%=      5-min Rain = 0
KMD1 141716Z 19010KT 27/19 A3001 RMK A01 T02670189  RH  062%=      5-min Rain = 0
KMD1 141717Z 18009KT 27/19 A3001 RMK A01 T02670189  RH  062%=      5-min Rain = 0
KMD1 141718Z 17011G16KT 27/19 A3001 RMK A01 T02680190  RH  062%=      5-min Rain = 0
KMD1 141719Z 17010KT 27/19 A3001 RMK A01 T02710189  RH  061%=      5-min Rain = 0
KMD1 141720Z 18010KT 27/19 A3001 RMK A01 T02720190  RH  061%=      5-min Rain = 0
KMD1 141721Z 19013KT 27/19 A3001 RMK A01 T02720189  RH  061%=      5-min Rain = 0
KMD1 141722Z 19011KT 27/19 A3001 RMK A01 T02700190  RH  061%=      5-min Rain = 0
KMD1 141723Z 18013KT 27/19 A3001 RMK A01 T02700190  RH  062%=      5-min Rain = 0
KMD1 141724Z 19013KT 27/19 A3001 RMK A01 T02690189  RH  061%=      5-min Rain = 0
KMD1 141725Z 19012KT 27/19 A3001 RMK A01 T02690189  RH  062%=      5-min Rain = 0
KMD1 141726Z 19009KT 27/19 A3001 RMK A01 T02680190  RH  062%=      5-min Rain = 0
KMD1 141727Z 19010KT 27/19 A3001 RMK A01 T02680189  RH  062%=      5-min Rain = 0
KMD1 141728Z 19009KT 27/19 A3001 RMK A01 T02670189  RH  062%=      5-min Rain = 0
KMD1 141729Z 19014KT 27/19 A3001 RMK A01 T02670189  RH  062%=      5-min Rain = 0
KMD1 141730Z 19010KT 27/19 A3001 RMK A01 T02670190  RH  062%=      5-min Rain = 0
KMD1 141731Z 18011G16KT 27/19 A3001 RMK A01 T02700189  RH  061%=      5-min Rain = 0
KMD1 141732Z 19012KT 27/19 A3001 RMK A01 T02710188  RH  060%=      5-min Rain = 0
KMD1 141733Z 17011KT 27/19 A3001 RMK A01 T02710189  RH  061%=      5-min Rain = 0
KMD1 141734Z 18010KT 27/19 A3001 RMK A01 T02700188  RH  061%=      5-min Rain = 0
KMD1 141735Z 20011KT 27/19 A3001 RMK A01 T02700189  RH  061%=      5-min Rain = 0
KMD1 141736Z 19008KT 27/19 A3001 RMK A01 T02700190  RH  061%=      5-min Rain = 0
KMD1 141737Z 19010KT 27/19 A3001 RMK A01 T02700190  RH  061%=      5-min Rain = 0
KMD1 141738Z 19011KT 27/19 A3001 RMK A01 T02700189  RH  061%=      5-min Rain = 0
KMD1 141739Z 18009KT 27/19 A3001 RMK A01 T02710190  RH  061%=      5-min Rain = 0
KMD1 141740Z 18010KT 27/19 A3001 RMK A01 T02710189  RH  061%=      5-min Rain = 0
KMD1 141741Z 18012KT 27/19 A3001 RMK A01 T02710190  RH  061%=      5-min Rain = 0
KMD1 141742Z 19012KT 27/19 A3001 RMK A01 T02710189  RH  061%=      5-min Rain = 0
KMD1 141743Z 19010KT 27/19 A3001 RMK A01 T02710189  RH  061%=      5-min Rain = 0
KMD1 141744Z 19011KT 27/19 A3001 RMK A01 T02700190  RH  062%=      5-min Rain = 0
KMD1 141745Z 19012KT 27/19 A30 RMK A01 T02690189  RH  061%=      5-min Rain = 0
KMD1 141746Z 18010KT 27/19 A30 RMK A01 T02680189  RH  062%=      5-min Rain = 0
KMD1 141747Z 19009KT 27/19 A30 RMK A01 T02680189  RH  062%=      5-min Rain = 0
KMD1 141748Z 19009KT 27/19 A30 RMK A01 T02690189  RH  061%=      5-min Rain = 0
KMD1 141749Z 20008KT 27/19 A30 RMK A01 T02690190  RH  062%=      5-min Rain = 0
KMD1 141750Z 20010KT 27/19 A30 RMK A01 T02710190  RH  061%=      5-min Rain = 0
KMD1 141751Z 19011KT 27/19 A30 RMK A01 T02710190  RH  061%=      5-min Rain = 0
KMD1 141752Z 18009KT 27/19 A30 RMK A01 T02700191  RH  062%=      5-min Rain = 0
KMD1 141753Z 20007KT 27/19 A30 RMK A01 T02710191  RH  062%=      5-min Rain = 0
KMD1 141754Z 19008KT 27/19 A30 RMK A01 T02730191  RH  061%=      5-min Rain = 0
KMD1 141755Z 20007KT 28/19 A30 RMK A01 T02750191  RH  060%=      5-min Rain = 0
KMD1 141756Z 19009KT 28/19 A30 RMK A01 T02760192  RH  060%=      5-min Rain = 0
KMD1 141757Z 20009G14KT 28/19 A30 RMK A01 T02760192  RH  060%=      5-min Rain = 0
KMD1 141758Z 19011KT 28/19 A30 RMK A01 T02790193  RH  060%=      5-min Rain = 0
KMD1 141759Z 17012KT 28/19 A30 RMK A01 T02820192  RH  058%=      5-min Rain = 0
KMD1 141800Z 18014KT 28/19 A30 RMK A01 T02820192  RH  058%=      5-min Rain = 0
KMD1 141801Z 18011KT 28/19 A30 RMK A01 T02800191  RH  059%=      5-min Rain = 0
KMD1 141802Z 18011KT 28/19 A30 RMK A01 T02780191  RH  059%=      5-min Rain = 0
KMD1 141803Z 19010KT 28/19 A30 RMK A01 T02760190  RH  060%=      5-min Rain = 0
KMD1 141804Z 19010KT 28/19 A30 RMK A01 T02750191  RH  060%=      5-min Rain = 0
KMD1 141805Z 19009KT 27/19 A30 RMK A01 T02740190  RH  060%=      5-min Rain = 0
KMD1 141806Z 20008G13KT 27/19 A30 RMK A01 T02730191  RH  061%=      5-min Rain = 0
KMD1 141807Z 19008KT 27/19 A30 RMK A01 T02730191  RH  061%=      5-min Rain = 0
KMD1 141808Z 16010KT 28/19 A30 RMK A01 T02750192  RH  061%=      5-min Rain = 0
KMD1 141809Z 16011KT 28/19 A30 RMK A01 T02790190  RH  058%=      5-min Rain = 0
KMD1 141810Z 16011KT 28/19 A30 RMK A01 T02790192  RH  059%=      5-min Rain = 0
KMD1 141811Z 16008KT 28/19 A30 RMK A01 T02800192  RH  059%=      5-min Rain = 0
KMD1 141812Z 14008KT 28/19 A30 RMK A01 T02830192  RH  058%=      5-min Rain = 0
KMD1 141813Z 13009KT 29/19 A30 RMK A01 T02860191  RH  057%=      5-min Rain = 0
KMD1 141814Z 17011KT 29/19 A30 RMK A01 T02870193  RH  057%=      5-min Rain = 0
KMD1 141815Z 21009KT 29/19 A30 RMK A01 T02900194  RH  056%=      5-min Rain = 0
KMD1 141816Z 20010KT 29/20 A2999 RMK A01 T02900195  RH  056%=      5-min Rain = 0
KMD1 141817Z 19007KT 29/19 A2999 RMK A01 T02880192  RH  056%=      5-min Rain = 0
KMD1 141818Z 20008KT 29/19 A2999 RMK A01 T02850194  RH  058%=      5-min Rain = 0
KMD1 141819Z 22011KT 28/20 A2999 RMK A01 T02840195  RH  059%=      5-min Rain = 0
KMD1 141820Z 19011KT 28/19 A2999 RMK A01 T02840193  RH  058%=      5-min Rain = 0
KMD1 141821Z 19009KT 29/20 A2999 RMK A01 T02860195  RH  058%=      5-min Rain = 0
KMD1 141822Z 19009KT 29/19 A2999 RMK A01 T02870193  RH  057%=      5-min Rain = 0
KMD1 141823Z 20008KT 29/19 A2999 RMK A01 T02880194  RH  057%=      5-min Rain = 0
KMD1 141824Z 20010G15KT 29/19 A2999 RMK A01 T02880193  RH  057%=      5-min Rain = 0
KMD1 141825Z 20008KT 29/19 A2999 RMK A01 T02880193  RH  056%=      5-min Rain = 0
KMD1 141826Z 20009KT 29/20 A2999 RMK A01 T02860195  RH  058%=      5-min Rain = 0
KMD1 141827Z 20009KT 29/19 A2999 RMK A01 T02860193  RH  057%=      5-min Rain = 0
KMD1 141828Z 19009KT 29/19 A2999 RMK A01 T02860192  RH  057%=      5-min Rain = 0
KMD1 141829Z 19008KT 29/19 A2999 RMK A01 T02850193  RH  057%=      5-min Rain = 0
KMD1 141830Z 20008KT 29/19 A2999 RMK A01 T02860193  RH  057%=      5-min Rain = 0
KMD1 141831Z 20009KT 29/19 A2999 RMK A01 T02850193  RH  057%=      5-min Rain = 0
KMD1 141832Z 19006KT 29/20 A2999 RMK A01 T02850195  RH  058%=      5-min Rain = 0
KMD1 141833Z 19010KT 29/19 A2999 RMK A01 T02900194  RH  056%=      5-min Rain = 0
KMD1 141834Z 20011KT 30/19 A2999 RMK A01 T02950194  RH  055%=      5-min Rain = 0
KMD1 141835Z 20012KT 30/19 A2999 RMK A01 T02950194  RH  054%=      5-min Rain = 0
KMD1 141836Z 19009KT 29/19 A2999 RMK A01 T02930193  RH  055%=      5-min Rain = 0
KMD1 141837Z 23008KT 29/19 A2999 RMK A01 T02930194  RH  055%=      5-min Rain = 0
KMD1 141838Z 23009KT 29/19 A2999 RMK A01 T02940194  RH  055%=      5-min Rain = 0
KMD1 141839Z 22011KT 29/20 A2998 RMK A01 T02930195  RH  056%=      5-min Rain = 0
KMD1 141840Z 20011KT 29/19 A2998 RMK A01 T02910193  RH  056%=      5-min Rain = 0
KMD1 141841Z 19012KT 29/19 A2999 RMK A01 T02910193  RH  055%=      5-min Rain = 0
KMD1 141842Z 18011KT 29/19 A2999 RMK A01 T02900192  RH  055%=      5-min Rain = 0
KMD1 141843Z 19008KT 29/19 A2999 RMK A01 T02900192  RH  056%=      5-min Rain = 0
KMD1 141844Z 20009KT 29/19 A2998 RMK A01 T02900192  RH  056%=      5-min Rain = 0
KMD1 141845Z 19010KT 29/19 A2998 RMK A01 T02870193  RH  057%=      5-min Rain = 0
KMD1 141846Z 19011KT 29/19 A2998 RMK A01 T02870193  RH  057%=      5-min Rain = 0
KMD1 141847Z 17011KT 29/19 A2998 RMK A01 T02860192  RH  056%=      5-min Rain = 0
KMD1 141848Z 15013KT 29/19 A2998 RMK A01 T02880192  RH  056%=      5-min Rain = 0
KMD1 141849Z 17011KT 29/19 A2998 RMK A01 T02900192  RH  056%=      5-min Rain = 0
KMD1 141850Z 18008KT 29/19 A2998 RMK A01 T02900193  RH  056%=      5-min Rain = 0
KMD1 141851Z 22008KT 29/19 A2998 RMK A01 T02900193  RH  056%=      5-min Rain = 0
KMD1 141852Z 17010KT 29/20 A2998 RMK A01 T02880195  RH  057%=      5-min Rain = 0
KMD1 141853Z 18010KT 29/19 A2998 RMK A01 T02910192  RH  055%=      5-min Rain = 0
KMD1 141854Z 19010KT 29/19 A2998 RMK A01 T02920192  RH  055%=      5-min Rain = 0
KMD1 141855Z 20009KT 29/19 A2998 RMK A01 T02910194  RH  056%=      5-min Rain = 0
KMD1 141856Z 21011KT 29/19 A2998 RMK A01 T02910194  RH  056%=      5-min Rain = 0
KMD1 141857Z 21012KT 29/19 A2998 RMK A01 T02910193  RH  055%=      5-min Rain = 0
KMD1 141858Z 21011KT 29/19 A2998 RMK A01 T02920193  RH  055%=      5-min Rain = 0
KMD1 141859Z 21009KT 29/19 A2998 RMK A01 T02920193  RH  055%=      5-min Rain = 0
KMD1 141900Z 20006KT 29/20 A2998 RMK A01 T02910195  RH  056%=      5-min Rain = 0
KMD1 141901Z 17009KT 29/19 A2998 RMK A01 T02920194  RH  056%=      5-min Rain = 0
KMD1 141902Z 17011KT 29/19 A2998 RMK A01 T02940194  RH  055%=      5-min Rain = 0
KMD1 141903Z 19012KT 30/20 A2998 RMK A01 T02970195  RH  054%=      5-min Rain = 0
KMD1 141904Z 18012KT 30/20 A2998 RMK A01 T03010196  RH  053%=      5-min Rain = 0
KMD1 141905Z 19013KT 30/19 A2998 RMK A01 T03040194  RH  052%=      5-min Rain = 0
KMD1 141906Z 18011KT 30/20 A2998 RMK A01 T03020195  RH  053%=      5-min Rain = 0
KMD1 141907Z 19007KT 30/19 A2998 RMK A01 T03010194  RH  053%=      5-min Rain = 0
KMD1 141908Z 18005KT 30/19 A2998 RMK A01 T02970194  RH  054%=      5-min Rain = 0
KMD1 141909Z 19008KT 30/19 A2998 RMK A01 T02960194  RH  055%=      5-min Rain = 0
KMD1 141910Z 19012KT 30/19 A2998 RMK A01 T02950194  RH  054%=      5-min Rain = 0
KMD1 141911Z 21010KT 30/19 A2997 RMK A01 T02960194  RH  054%=      5-min Rain = 0
KMD1 141912Z 21010KT 30/19 A2997 RMK A01 T02960194  RH  054%=      5-min Rain = 0
KMD1 141913Z 21012KT 30/20 A2997 RMK A01 T02950195  RH  055%=      5-min Rain = 0
KMD1 141914Z 20012KT 30/19 A2997 RMK A01 T02960193  RH  054%=      5-min Rain = 0
KMD1 141915Z 22010G16KT 30/19 A2997 RMK A01 T02960194  RH  054%=      5-min Rain = 0
KMD1 141916Z 23011KT 30/19 A2997 RMK A01 T02990192  RH  053%=      5-min Rain = 0
KMD1 141917Z 22010KT 30/20 A2997 RMK A01 T02980196  RH  054%=      5-min Rain = 0
KMD1 141918Z 21010KT 30/20 A2997 RMK A01 T02980197  RH  055%=      5-min Rain = 0
KMD1 141919Z 21009KT 30/20 A2997 RMK A01 T03000195  RH  053%=      5-min Rain = 0
KMD1 141920Z 21005G10KT 30/20 A2997 RMK A01 T03000196  RH  054%=      5-min Rain = 0
KMD1 141921Z 22006KT 30/20 A2997 RMK A01 T03000196  RH  054%=      5-min Rain = 0
KMD1 141922Z 22007KT 30/19 A2997 RMK A01 T02980194  RH  054%=      5-min Rain = 0
KMD1 141923Z 20008KT 30/20 A2997 RMK A01 T02970196  RH  055%=      5-min Rain = 0
KMD1 141924Z 17008KT 30/19 A2997 RMK A01 T02950193  RH  054%=      5-min Rain = 0
KMD1 141925Z 17010KT 30/19 A2996 RMK A01 T02960192  RH  054%=      5-min Rain = 0
KMD1 141926Z 16011KT 30/19 A2996 RMK A01 T02990192  RH  053%=      5-min Rain = 0
KMD1 141927Z 15010KT 30/19 A2996 RMK A01 T03010191  RH  052%=      5-min Rain = 0
KMD1 141928Z 16012KT 30/19 A2996 RMK A01 T03020192  RH  052%=      5-min Rain = 0
KMD1 141929Z 18010KT 30/20 A2996 RMK A01 T03030195  RH  052%=      5-min Rain = 0
KMD1 141930Z 17008KT 31/19 A2996 RMK A01 T03050193  RH  051%=      5-min Rain = 0
KMD1 141931Z 18006KT 31/20 A2996 RMK A01 T03050196  RH  052%=      5-min Rain = 0
KMD1 141932Z 17007KT 30/20 A2996 RMK A01 T03040195  RH  052%=      5-min Rain = 0
KMD1 141933Z 19009KT 30/20 A2996 RMK A01 T03030195  RH  053%=      5-min Rain = 0
KMD1 141934Z 19011KT 30/19 A2996 RMK A01 T03040194  RH  052%=      5-min Rain = 0
KMD1 141935Z 19008KT 30/19 A2996 RMK A01 T03030194  RH  052%=      5-min Rain = 0
KMD1 141936Z 18009KT 30/20 A2996 RMK A01 T03010195  RH  053%=      5-min Rain = 0
KMD1 141937Z 20006KT 30/19 A2996 RMK A01 T03020194  RH  052%=      5-min Rain = 0
KMD1 141938Z 23007KT 30/20 A2996 RMK A01 T03040195  RH  052%=      5-min Rain = 0
KMD1 141939Z 21009KT 30/20 A2996 RMK A01 T03040198  RH  053%=      5-min Rain = 0
KMD1 141940Z 18009KT 31/20 A2996 RMK A01 T03060197  RH  052%=      5-min Rain = 0
KMD1 141941Z 18010KT 31/20 A2996 RMK A01 T03070196  RH  052%=      5-min Rain = 0
KMD1 141942Z 20007KT 31/20 A2996 RMK A01 T03090197  RH  051%=      5-min Rain = 0
KMD1 141943Z 20010KT 31/20 A2996 RMK A01 T03100195  RH  050%=      5-min Rain = 0
KMD1 141944Z 20012KT 31/20 A2996 RMK A01 T03090197  RH  051%=      5-min Rain = 0
KMD1 141945Z 20011KT 31/20 A2996 RMK A01 T03090195  RH  051%=      5-min Rain = 0
KMD1 141946Z 18009KT 31/19 A2995 RMK A01 T03080194  RH  051%=      5-min Rain = 0
KMD1 141947Z 19011KT 31/19 A2995 RMK A01 T03090193  RH  050%=      5-min Rain = 0
KMD1 141948Z 19011KT 31/19 A2995 RMK A01 T03100192  RH  050%=      5-min Rain = 0
KMD1 141949Z 20008KT 31/19 A2995 RMK A01 T03080194  RH  050%=      5-min Rain = 0
KMD1 141950Z 22009KT 31/19 A2995 RMK A01 T03080193  RH  050%=      5-min Rain = 0
KMD1 141951Z 22011KT 31/19 A2995 RMK A01 T03100194  RH  050%=      5-min Rain = 0
KMD1 141952Z 20010KT 31/20 A2995 RMK A01 T03100195  RH  050%=      5-min Rain = 0
KMD1 141953Z 21008KT 31/20 A2995 RMK A01 T03110198  RH  051%=      5-min Rain = 0
KMD1 141954Z 20009KT 31/20 A2995 RMK A01 T03120195  RH  050%=      5-min Rain = 0
KMD1 141955Z 19008KT 31/20 A2995 RMK A01 T03120196  RH  050%=      5-min Rain = 0
KMD1 141956Z 19008KT 31/20 A2995 RMK A01 T03120196  RH  050%=      5-min Rain = 0
KMD1 141957Z 18008KT 31/20 A2995 RMK A01 T03120195  RH  050%=      5-min Rain = 0
KMD1 141958Z 20011G17KT 31/20 A2995 RMK A01 T03110196  RH  050%=      5-min Rain = 0
KMD1 141959Z 19008KT 31/19 A2995 RMK A01 T03090193  RH  050%=      5-min Rain = 0
KMD1 142000Z 19008KT 31/19 A2995 RMK A01 T03050193  RH  051%=      5-min Rain = 0
KMD1 142001Z 19010KT 31/19 A2995 RMK A01 T03050192  RH  051%=      5-min Rain = 0
KMD1 142002Z 20013KT 31/19 A2995 RMK A01 T03060192  RH  051%=      5-min Rain = 0
KMD1 142003Z 21011KT 31/19 A2995 RMK A01 T03100189  RH  049%=      5-min Rain = 0
KMD1 142004Z 21008KT 31/19 A2995 RMK A01 T03100191  RH  049%=      5-min Rain = 0
KMD1 142005Z 19008KT 31/19 A2995 RMK A01 T03100192  RH  050%=      5-min Rain = 0
KMD1 142006Z 18008KT 31/19 A2995 RMK A01 T03120192  RH  049%=      5-min Rain = 0
KMD1 142007Z 19011KT 31/19 A2995 RMK A01 T03130194  RH  049%=      5-min Rain = 0
KMD1 142008Z 18013KT 31/19 A2994 RMK A01 T03140194  RH  049%=      5-min Rain = 0
KMD1 142009Z 18012KT 31/19 A2994 RMK A01 T03140193  RH  049%=      5-min Rain = 0
KMD1 142010Z 17013KT 31/19 A2994 RMK A01 T03130194  RH  049%=      5-min Rain = 0
KMD1 142011Z 18010KT 31/19 A2994 RMK A01 T03110193  RH  049%=      5-min Rain = 0
KMD1 142012Z 19006KT 31/19 A2994 RMK A01 T03100193  RH  050%=      5-min Rain = 0
KMD1 142013Z 21004KT 31/19 A2994 RMK A01 T03090193  RH  050%=      5-min Rain = 0
KMD1 142014Z 22004KT 31/19 A2994 RMK A01 T03090192  RH  050%=      5-min Rain = 0
KMD1 142015Z 20004KT 31/19 A2994 RMK A01 T03080193  RH  050%=      5-min Rain = 0
KMD1 142016Z 20007KT 31/19 A2994 RMK A01 T03090192  RH  050%=      5-min Rain = 0
KMD1 142017Z 19010KT 31/19 A2994 RMK A01 T03110193  RH  049%=      5-min Rain = 0
KMD1 142018Z 20011KT 31/19 A2994 RMK A01 T03120192  RH  049%=      5-min Rain = 0
KMD1 142019Z 18011KT 31/19 A2994 RMK A01 T03110190  RH  049%=      5-min Rain = 0
KMD1 142020Z 20007KT 31/19 A2994 RMK A01 T03120192  RH  049%=      5-min Rain = 0
KMD1 142021Z 22007KT 32/19 A2994 RMK A01 T03160193  RH  048%=      5-min Rain = 0
KMD1 142022Z 19008KT 32/20 A2994 RMK A01 T03160196  RH  049%=      5-min Rain = 0
KMD1 142023Z 19007KT 32/19 A2994 RMK A01 T03150192  RH  048%=      5-min Rain = 0
KMD1 142024Z 18008KT 31/19 A2993 RMK A01 T03120191  RH  049%=      5-min Rain = 0
KMD1 142025Z 19011KT 31/19 A2993 RMK A01 T03090191  RH  049%=      5-min Rain = 0
KMD1 142026Z 19009KT 31/19 A2993 RMK A01 T03070191  RH  050%=      5-min Rain = 0
KMD1 142027Z 19011KT 31/19 A2993 RMK A01 T03070189  RH  050%=      5-min Rain = 0
KMD1 142028Z 20014KT 31/19 A2993 RMK A01 T03070191  RH  050%=      5-min Rain = 0
KMD1 142029Z 20011KT 31/19 A2993 RMK A01 T03080193  RH  051%=      5-min Rain = 0
KMD1 142030Z 20011KT 31/19 A2993 RMK A01 T03090194  RH  050%=      5-min Rain = 0
KMD1 142031Z 19009KT 31/19 A2993 RMK A01 T03090194  RH  050%=      5-min Rain = 0
KMD1 142032Z 20010KT 31/19 A2993 RMK A01 T03080194  RH  051%=      5-min Rain = 0
KMD1 142033Z 21008KT 31/20 A2993 RMK A01 T03090195  RH  051%=      5-min Rain = 0
KMD1 142034Z 20009KT 31/19 A2993 RMK A01 T03100193  RH  050%=      5-min Rain = 0
KMD1 142035Z 19008KT 31/19 A2993 RMK A01 T03090194  RH  050%=      5-min Rain = 0
KMD1 142036Z 19008KT 31/19 A2993 RMK A01 T03100191  RH  049%=      5-min Rain = 0
KMD1 142037Z 20009KT 31/19 A2993 RMK A01 T03110192  RH  049%=      5-min Rain = 0
KMD1 142038Z 18009KT 31/19 A2993 RMK A01 T03120193  RH  049%=      5-min Rain = 0
KMD1 142039Z 19008KT 31/19 A2993 RMK A01 T03100190  RH  049%=      5-min Rain = 0
KMD1 142040Z 21006G11KT 31/19 A2992 RMK A01 T03090191  RH  049%=      5-min Rain = 0
KMD1 142041Z 20006KT 31/19 A2992 RMK A01 T03090189  RH  049%=      5-min Rain = 0
KMD1 142042Z 19011KT 31/19 A2992 RMK A01 T03100192  RH  049%=      5-min Rain = 0
KMD1 142043Z 19012KT 31/19 A2992 RMK A01 T03140191  RH  048%=      5-min Rain = 0
KMD1 142044Z 19012KT 32/19 A2992 RMK A01 T03150190  RH  047%=      5-min Rain = 0
KMD1 142045Z 19011KT 32/19 A2992 RMK A01 T03160190  RH  047%=      5-min Rain = 0
KMD1 142046Z 20010KT 32/19 A2992 RMK A01 T03170190  RH  047%=      5-min Rain = 0
KMD1 142047Z 20008KT 32/19 A2992 RMK A01 T03170192  RH  048%=      5-min Rain = 0
KMD1 142048Z 20008KT 32/19 A2992 RMK A01 T03170194  RH  048%=      5-min Rain = 0
KMD1 142049Z 21008KT 32/20 A2992 RMK A01 T03190196  RH  048%=      5-min Rain = 0
KMD1 142050Z 20008KT 32/20 A2992 RMK A01 T03200196  RH  048%=      5-min Rain = 0
KMD1 142051Z 20006KT 32/19 A2992 RMK A01 T03210194  RH  047%=      5-min Rain = 0
KMD1 142052Z 20011KT 32/19 A2992 RMK A01 T03230194  RH  046%=      5-min Rain = 0
KMD1 142053Z 20008KT 32/19 A2992 RMK A01 T03220191  RH  046%=      5-min Rain = 0
KMD1 142054Z 21008KT 32/19 A2992 RMK A01 T03190194  RH  048%=      5-min Rain = 0
KMD1 142055Z 22008KT 32/20 A2992 RMK A01 T03170195  RH  048%=      5-min Rain = 0
KMD1 142056Z 19008KT 32/20 A2992 RMK A01 T03170195  RH  048%=      5-min Rain = 0
KMD1 142057Z 18011KT 32/19 A2992 RMK A01 T03160193  RH  048%=      5-min Rain = 0
KMD1 142058Z 20007KT 32/19 A2991 RMK A01 T03150193  RH  048%=      5-min Rain = 0
KMD1 142059Z 18011KT 32/19 A2991 RMK A01 T03150194  RH  048%=      5-min Rain = 0
KMD1 142100Z 18013KT 32/19 A2991 RMK A01 T03170192  RH  047%=      5-min Rain = 0
KMD1 142101Z 17011KT 32/19 A2991 RMK A01 T03170193  RH  048%=      5-min Rain = 0
KMD1 142102Z 18011KT 32/19 A2991 RMK A01 T03170192  RH  048%=      5-min Rain = 0
KMD1 142103Z 19010KT 32/19 A2991 RMK A01 T03150191  RH  048%=      5-min Rain = 0
KMD1 142104Z 20011KT 31/19 A2991 RMK A01 T03130192  RH  049%=      5-min Rain = 0
KMD1 142105Z 19010KT 31/19 A2991 RMK A01 T03100192  RH  049%=      5-min Rain = 0
KMD1 142106Z 20009KT 31/19 A2991 RMK A01 T03090192  RH  050%=      5-min Rain = 0
KMD1 142107Z 20010KT 31/19 A2991 RMK A01 T03100191  RH  049%=      5-min Rain = 0
KMD1 142108Z 21009G14KT 31/19 A2991 RMK A01 T03110190  RH  048%=      5-min Rain = 0
KMD1 142109Z 20008KT 31/19 A2991 RMK A01 T03110190  RH  048%=      5-min Rain = 0
KMD1 142110Z 20006KT 31/19 A2991 RMK A01 T03090191  RH  049%=      5-min Rain = 0
KMD1 142111Z 19008KT 31/19 A2991 RMK A01 T03100194  RH  050%=      5-min Rain = 0
KMD1 142112Z 19009KT 32/19 A2991 RMK A01 T03150194  RH  049%=      5-min Rain = 0
KMD1 142113Z 20008KT 32/19 A2991 RMK A01 T03160190  RH  047%=      5-min Rain = 0
KMD1 142114Z 17005KT 31/19 A2991 RMK A01 T03120190  RH  048%=      5-min Rain = 0
KMD1 142115Z 18005KT 31/19 A299 RMK A01 T03110190  RH  048%=      5-min Rain = 0
KMD1 142116Z 18009KT 31/19 A299 RMK A01 T03110191  RH  049%=      5-min Rain = 0
KMD1 142117Z 18011KT 31/19 A299 RMK A01 T03130191  RH  048%=      5-min Rain = 0
KMD1 142118Z 18011KT 31/19 A299 RMK A01 T03140191  RH  048%=      5-min Rain = 0
KMD1 142119Z 20008KT 31/19 A299 RMK A01 T03140192  RH  048%=      5-min Rain = 0
KMD1 142120Z 18007KT 31/19 A299 RMK A01 T03130192  RH  049%=      5-min Rain = 0
KMD1 142121Z 19007KT 31/19 A299 RMK A01 T03110191  RH  049%=      5-min Rain = 0
KMD1 142122Z 20005KT 31/19 A299 RMK A01 T03090191  RH  049%=      5-min Rain = 0
KMD1 142123Z 24004KT 31/19 A299 RMK A01 T03080191  RH  050%=      5-min Rain = 0
KMD1 142124Z 20006KT 31/19 A299 RMK A01 T03100191  RH  049%=      5-min Rain = 0
KMD1 142125Z 19006KT 31/19 A299 RMK A01 T03130192  RH  049%=      5-min Rain = 0
KMD1 142126Z 20007KT 32/19 A299 RMK A01 T03160194  RH  048%=      5-min Rain = 0
KMD1 142127Z 19006KT 32/20 A299 RMK A01 T03190196  RH  048%=      5-min Rain = 0
KMD1 142128Z 21009KT 32/20 A299 RMK A01 T03230195  RH  047%=      5-min Rain = 0
KMD1 142129Z 22010KT 32/19 A299 RMK A01 T03240191  RH  045%=      5-min Rain = 0
KMD1 142130Z 22008KT 32/19 A299 RMK A01 T03210190  RH  046%=      5-min Rain = 0
KMD1 142131Z 22009KT 32/19 A299 RMK A01 T03190190  RH  047%=      5-min Rain = 0
KMD1 142132Z 23009KT 32/19 A299 RMK A01 T03190190  RH  046%=      5-min Rain = 0
KMD1 142133Z 22011KT 32/19 A299 RMK A01 T03220190  RH  046%=      5-min Rain = 0
KMD1 142134Z 23013KT 32/19 A2989 RMK A01 T03230189  RH  045%=      5-min Rain = 0
KMD1 142135Z 23012KT 32/19 A2989 RMK A01 T03220190  RH  046%=      5-min Rain = 0
KMD1 142136Z 21009KT 32/19 A299 RMK A01 T03230188  RH  045%=      5-min Rain = 0
KMD1 142137Z 21006KT 32/19 A299 RMK A01 T03220187  RH  045%=      5-min Rain = 0
KMD1 142138Z 22006KT 32/19 A2989 RMK A01 T03190188  RH  046%=      5-min Rain = 0
KMD1 142139Z 20005KT 32/19 A2989 RMK A01 T03190187  RH  046%=      5-min Rain = 0
KMD1 142140Z 19007KT 32/19 A2989 RMK A01 T03190189  RH  046%=      5-min Rain = 0
KMD1 142141Z 16005KT 32/19 A2989 RMK A01 T03210192  RH  047%=      5-min Rain = 0
KMD1 142142Z 15010KT 32/19 A2989 RMK A01 T03220191  RH  046%=      5-min Rain = 0
KMD1 142143Z 15011KT 32/19 A2989 RMK A01 T03230191  RH  046%=      5-min Rain = 0
KMD1 142144Z 16010KT 32/19 A2989 RMK A01 T03220191  RH  046%=      5-min Rain = 0
KMD1 142145Z 17010KT 32/19 A2989 RMK A01 T03220190  RH  046%=      5-min Rain = 0
KMD1 142146Z 14008KT 32/19 A2989 RMK A01 T03220191  RH  046%=      5-min Rain = 0
KMD1 142147Z 17007KT 32/19 A2989 RMK A01 T03210191  RH  046%=      5-min Rain = 0
KMD1 142148Z 20007KT 32/19 A2989 RMK A01 T03220192  RH  046%=      5-min Rain = 0
KMD1 142149Z 20010KT 32/19 A2989 RMK A01 T03240192  RH  046%=      5-min Rain = 0
KMD1 142150Z 19008KT 32/19 A2989 RMK A01 T03230188  RH  045%=      5-min Rain = 0
KMD1 142151Z 18007KT 32/19 A2989 RMK A01 T03200188  RH  046%=      5-min Rain = 0
KMD1 142152Z 21006KT 32/19 A2989 RMK A01 T03190190  RH  046%=      5-min Rain = 0
KMD1 142153Z 23009KT 32/19 A2989 RMK A01 T03230188  RH  045%=      5-min Rain = 0
KMD1 142154Z 21008KT 32/19 A2989 RMK A01 T03230190  RH  045%=      5-min Rain = 0
KMD1 142155Z 20009KT 32/19 A2989 RMK A01 T03240190  RH  045%=      5-min Rain = 0
KMD1 142156Z 19008KT 32/19 A2989 RMK A01 T03220191  RH  046%=      5-min Rain = 0
KMD1 142157Z 20007G12KT 32/19 A2989 RMK A01 T03220190  RH  046%=      5-min Rain = 0
KMD1 142158Z 21009G15KT 32/19 A2989 RMK A01 T03240193  RH  046%=      5-min Rain = 0
KMD1 142159Z 19010KT 33/19 A2989 RMK A01 T03260190  RH  045%=      5-min Rain = 0
KMD1 142200Z 21011KT 32/19 A2989 RMK A01 T03240190  RH  045%=      5-min Rain = 0
KMD1 142201Z 23010KT 32/19 A2989 RMK A01 T03210188  RH  045%=      5-min Rain = 0
KMD1 142202Z 23007KT 32/19 A2989 RMK A01 T03200186  RH  045%=      5-min Rain = 0
KMD1 142203Z 23007KT 32/19 A2989 RMK A01 T03220189  RH  045%=      5-min Rain = 0
KMD1 142204Z 21005KT 33/19 A2989 RMK A01 T03260192  RH  045%=      5-min Rain = 0
KMD1 142205Z 22008KT 33/19 A2988 RMK A01 T03270191  RH  044%=      5-min Rain = 0
KMD1 142206Z 22008G13KT 33/19 A2988 RMK A01 T03250187  RH  044%=      5-min Rain = 0
KMD1 142207Z 20010KT 32/19 A2988 RMK A01 T03220188  RH  045%=      5-min Rain = 0
KMD1 142208Z 22008KT 32/19 A2988 RMK A01 T03210186  RH  045%=      5-min Rain = 0
KMD1 142209Z 22007KT 32/19 A2988 RMK A01 T03210188  RH  045%=      5-min Rain = 0
KMD1 142210Z 22006KT 32/19 A2988 RMK A01 T03230189  RH  045%=      5-min Rain = 0
KMD1 142211Z 22009KT 33/19 A2988 RMK A01 T03260186  RH  044%=      5-min Rain = 0
KMD1 142212Z 21008KT 32/19 A2988 RMK A01 T03240185  RH  044%=      5-min Rain = 0
KMD1 142213Z 22006KT 32/19 A2988 RMK A01 T03220186  RH  045%=      5-min Rain = 0
KMD1 142214Z 21004KT 32/19 A2988 RMK A01 T03200186  RH  045%=      5-min Rain = 0
KMD1 142215Z 20007KT 32/19 A2988 RMK A01 T03200190  RH  046%=      5-min Rain = 0
KMD1 142216Z 22008KT 32/19 A2988 RMK A01 T03240187  RH  044%=      5-min Rain = 0
KMD1 142217Z 20009KT 33/19 A2988 RMK A01 T03250190  RH  045%=      5-min Rain = 0
KMD1 142218Z 19009KT 33/19 A2988 RMK A01 T03260191  RH  045%=      5-min Rain = 0
KMD1 142219Z 19011KT 32/19 A2988 RMK A01 T03240189  RH  045%=      5-min Rain = 0
KMD1 142220Z 18010KT 32/19 A2988 RMK A01 T03200186  RH  045%=      5-min Rain = 0
KMD1 142221Z 18010KT 32/19 A2988 RMK A01 T03180186  RH  046%=      5-min Rain = 0
KMD1 142222Z 19010KT 32/19 A2988 RMK A01 T03180186  RH  045%=      5-min Rain = 0
KMD1 142223Z 20009KT 32/19 A2988 RMK A01 T03170186  RH  046%=      5-min Rain = 0
KMD1 142224Z 19007KT 32/19 A2988 RMK A01 T03160187  RH  046%=      5-min Rain = 0
KMD1 142225Z 19006KT 32/18 A2988 RMK A01 T03170182  RH  045%=      5-min Rain = 0
KMD1 142226Z 22007KT 32/18 A2988 RMK A01 T03150183  RH  045%=      5-min Rain = 0
KMD1 142227Z 21010KT 32/18 A2988 RMK A01 T03150184  RH  046%=      5-min Rain = 0
KMD1 142228Z 21011KT 31/18 A2988 RMK A01 T03140184  RH  046%=      5-min Rain = 0
KMD1 142229Z 21009KT 31/18 A2988 RMK A01 T03140184  RH  046%=      5-min Rain = 0
KMD1 142230Z 20008KT 31/19 A2988 RMK A01 T03140185  RH  046%=      5-min Rain = 0
KMD1 142231Z 20008KT 31/19 A2988 RMK A01 T03130185  RH  046%=      5-min Rain = 0
KMD1 142232Z 20010KT 31/18 A2988 RMK A01 T03130184  RH  046%=      5-min Rain = 0
KMD1 142233Z 20009KT 31/18 A2988 RMK A01 T03120182  RH  046%=      5-min Rain = 0
KMD1 142234Z 19008KT 31/18 A2988 RMK A01 T03110182  RH  046%=      5-min Rain = 0
KMD1 142235Z 19009KT 31/18 A2988 RMK A01 T03110182  RH  046%=      5-min Rain = 0
KMD1 142236Z 19007KT 31/18 A2988 RMK A01 T03110183  RH  047%=      5-min Rain = 0
KMD1 142237Z 20006KT 31/18 A2988 RMK A01 T03110183  RH  047%=      5-min Rain = 0
KMD1 142238Z 18005KT 31/18 A2988 RMK A01 T03110183  RH  047%=      5-min Rain = 0
KMD1 142239Z 18006KT 31/18 A2988 RMK A01 T03110182  RH  046%=      5-min Rain = 0
KMD1 142240Z 18007KT 31/18 A2988 RMK A01 T03110182  RH  046%=      5-min Rain = 0
KMD1 142241Z 18007KT 31/18 A2988 RMK A01 T03120184  RH  047%=      5-min Rain = 0
KMD1 142242Z 18008KT 31/19 A2988 RMK A01 T03130185  RH  047%=      5-min Rain = 0
KMD1 142243Z 17009KT 31/19 A2987 RMK A01 T03140186  RH  047%=      5-min Rain = 0
KMD1 142244Z 18009KT 32/19 A2987 RMK A01 T03170186  RH  046%=      5-min Rain = 0
KMD1 142245Z 21007KT 32/19 A2987 RMK A01 T03190189  RH  046%=      5-min Rain = 0
KMD1 142246Z 20009KT 32/19 A2988 RMK A01 T03200191  RH  046%=      5-min Rain = 0
KMD1 142247Z 22010G15KT 32/19 A2987 RMK A01 T03210189  RH  045%=      5-min Rain = 0
KMD1 142248Z 24009KT 32/19 A2987 RMK A01 T03200189  RH  046%=      5-min Rain = 0
KMD1 142249Z 23010KT 32/19 A2987 RMK A01 T03190186  RH  045%=      5-min Rain = 0
KMD1 142250Z 23007KT 32/19 A2987 RMK A01 T03180188  RH  046%=      5-min Rain = 0
KMD1 142251Z 22009G14KT 32/19 A2987 RMK A01 T03190190  RH  046%=      5-min Rain = 0
KMD1 142252Z 23011KT 32/19 A2987 RMK A01 T03210191  RH  046%=      5-min Rain = 0
KMD1 142253Z 23011KT 32/19 A2987 RMK A01 T03210191  RH  046%=      5-min Rain = 0
KMD1 142254Z 21010KT 32/19 A2987 RMK A01 T03200192  RH  047%=      5-min Rain = 0
KMD1 142255Z 21010KT 32/19 A2987 RMK A01 T03190191  RH  047%=      5-min Rain = 0
KMD1 142256Z 22011KT 32/19 A2986 RMK A01 T03180190  RH  047%=      5-min Rain = 0
KMD1 142257Z 21012KT 32/19 A2986 RMK A01 T03170191  RH  047%=      5-min Rain = 0
KMD1 142258Z 21010KT 32/19 A2986 RMK A01 T03160189  RH  047%=      5-min Rain = 0
KMD1 142259Z 22009KT 32/19 A2986 RMK A01 T03160190  RH  047%=      5-min Rain = 0
KMD1 142300Z 21009KT 32/19 A2986 RMK A01 T03160190  RH  047%=      5-min Rain = 0
KMD1 142301Z 20009KT 32/19 A2986 RMK A01 T03160191  RH  048%=      5-min Rain = 0
KMD1 142302Z 22009KT 32/19 A2986 RMK A01 T03160192  RH  048%=      5-min Rain = 0
KMD1 142303Z 21011KT 32/19 A2986 RMK A01 T03150194  RH  049%=      5-min Rain = 0
KMD1 142304Z 22010KT 31/19 A2986 RMK A01 T03140194  RH  049%=      5-min Rain = 0
KMD1 142305Z 22011KT 31/20 A2986 RMK A01 T03140195  RH  049%=      5-min Rain = 0
KMD1 142306Z 20009KT 31/19 A2986 RMK A01 T03140194  RH  049%=      5-min Rain = 0
KMD1 142307Z 19009G14KT 32/19 A2986 RMK A01 T03150191  RH  048%=      5-min Rain = 0
KMD1 142308Z 21011KT 32/19 A2986 RMK A01 T03150191  RH  048%=      5-min Rain = 0
KMD1 142309Z 21010G15KT 32/19 A2986 RMK A01 T03150190  RH  047%=      5-min Rain = 0
KMD1 142310Z 20011KT 32/19 A2986 RMK A01 T03160189  RH  047%=      5-min Rain = 0
KMD1 142311Z 21008KT 32/19 A2986 RMK A01 T03160188  RH  047%=      5-min Rain = 0
KMD1 142312Z 21007KT 32/19 A2986 RMK A01 T03150191  RH  048%=      5-min Rain = 0
KMD1 142313Z 21008G14KT 32/19 A2986 RMK A01 T03170193  RH  048%=      5-min Rain = 0
KMD1 142314Z 21014KT 32/19 A2986 RMK A01 T03180192  RH  047%=      5-min Rain = 0
KMD1 142315Z 21012KT 32/19 A2987 RMK A01 T03160191  RH  048%=      5-min Rain = 0
KMD1 142316Z 21011KT 32/19 A2987 RMK A01 T03150192  RH  048%=      5-min Rain = 0
KMD1 142317Z 21012KT 31/19 A2987 RMK A01 T03140191  RH  048%=      5-min Rain = 0
KMD1 142318Z 21011KT 31/19 A2987 RMK A01 T03120191  RH  049%=      5-min Rain = 0
KMD1 142319Z 22009KT 31/19 A2987 RMK A01 T03110193  RH  049%=      5-min Rain = 0
KMD1 142320Z 22012KT 31/19 A2987 RMK A01 T03110192  RH  049%=      5-min Rain = 0
KMD1 142321Z 22010KT 31/19 A2987 RMK A01 T03120193  RH  049%=      5-min Rain = 0
KMD1 142322Z 21007KT 31/20 A2987 RMK A01 T03110195  RH  050%=      5-min Rain = 0
KMD1 142323Z 21010G15KT 31/20 A2987 RMK A01 T03110196  RH  050%=      5-min Rain = 0
KMD1 142324Z 22012KT 31/19 A2987 RMK A01 T03110194  RH  050%=      5-min Rain = 0
KMD1 142325Z 22010KT 31/19 A2987 RMK A01 T03110193  RH  050%=      5-min Rain = 0
KMD1 142326Z 23009KT 31/19 A2987 RMK A01 T03110194  RH  050%=      5-min Rain = 0
KMD1 142327Z 22008KT 31/19 A2987 RMK A01 T03110194  RH  050%=      5-min Rain = 0
KMD1 142328Z 21010G16KT 31/20 A2987 RMK A01 T03110196  RH  050%=      5-min Rain = 0
KMD1 142329Z 21012KT 31/20 A2987 RMK A01 T03110196  RH  050%=      5-min Rain = 0
KMD1 142330Z 21012KT 31/20 A2987 RMK A01 T03110195  RH  050%=      5-min Rain = 0
KMD1 142331Z 20009KT 31/19 A2987 RMK A01 T03100194  RH  050%=      5-min Rain = 0
KMD1 142332Z 20011KT 31/19 A2988 RMK A01 T03110194  RH  050%=      5-min Rain = 0
KMD1 142333Z 20011KT 31/20 A2987 RMK A01 T03120196  RH  050%=      5-min Rain = 0
KMD1 142334Z 19013KT 31/20 A2987 RMK A01 T03110197  RH  051%=      5-min Rain = 0
KMD1 142335Z 21012G17KT 31/20 A2988 RMK A01 T03100198  RH  051%=      5-min Rain = 0
KMD1 142336Z 23011KT 31/20 A2988 RMK A01 T03090199  RH  052%=      5-min Rain = 0
KMD1 142337Z 23012KT 31/20 A2988 RMK A01 T03090198  RH  052%=      5-min Rain = 0
KMD1 142338Z 22009KT 31/20 A2988 RMK A01 T03090200  RH  052%=      5-min Rain = 0
KMD1 142339Z 22012KT 31/20 A2988 RMK A01 T03090200  RH  052%=      5-min Rain = 0
KMD1 142340Z 23012KT 31/20 A2988 RMK A01 T03090201  RH  053%=      5-min Rain = 0
KMD1 142341Z 23012KT 31/20 A2988 RMK A01 T03080199  RH  052%=      5-min Rain = 0
KMD1 142342Z 21009KT 31/20 A2988 RMK A01 T03070200  RH  053%=      5-min Rain = 0
KMD1 142343Z 21011KT 31/20 A2988 RMK A01 T03060201  RH  053%=      5-min Rain = 0
KMD1 142344Z 22012KT 31/20 A2988 RMK A01 T03060201  RH  054%=      5-min Rain = 0
KMD1 142345Z 22010KT 30/20 A2988 RMK A01 T03040200  RH  054%=      5-min Rain = 0
KMD1 142346Z 23012KT 30/20 A2988 RMK A01 T03030201  RH  054%=      5-min Rain = 0
KMD1 142347Z 23015KT 30/20 A2988 RMK A01 T03010199  RH  055%=      5-min Rain = 0
KMD1 142348Z 23015KT 30/20 A2988 RMK A01 T02990199  RH  055%=      5-min Rain = 0
KMD1 142349Z 23012KT 30/20 A2988 RMK A01 T02970199  RH  056%=      5-min Rain = 0
KMD1 142350Z 23012KT 30/20 A2987 RMK A01 T02970199  RH  056%=      5-min Rain = 0
KMD1 142351Z 23012KT 30/20 A2987 RMK A01 T02970198  RH  056%=      5-min Rain = 0
KMD1 142352Z 23011KT 30/20 A2987 RMK A01 T02970198  RH  055%=      5-min Rain = 0
KMD1 142353Z 23013KT 30/20 A2987 RMK A01 T02970199  RH  055%=      5-min Rain = 0
KMD1 142354Z 23013KT 30/20 A2987 RMK A01 T02970199  RH  056%=      5-min Rain = 0
KMD1 142355Z 22015KT 30/20 A2987 RMK A01 T02970199  RH  055%=      5-min Rain = 0
KMD1 142356Z 22015KT 30/20 A2987 RMK A01 T02960199  RH  056%=      5-min Rain = 0
KMD1 142357Z 23016KT 30/20 A2987 RMK A01 T02950199  RH  056%=      5-min Rain = 0
KMD1 142358Z 23014KT 30/20 A2987 RMK A01 T02950198  RH  056%=      5-min Rain = 0
KMD1 142359Z 23010KT 29/20 A2987 RMK A01 T02940198  RH  056%=      5-min Rain = 0
KMD1 150000Z 21010G15KT 29/20 A2987 RMK A01 T02940199  RH  057%=      5-min Rain = 0
KMD1 150001Z 22011KT 29/20 A2988 RMK A01 T02940199  RH  057%=      5-min Rain = 0
KMD1 150002Z 23007G12KT 29/20 A2988 RMK A01 T02930199  RH  057%=      5-min Rain = 0
KMD1 150003Z 22011KT 29/20 A2988 RMK A01 T02920199  RH  057%=      5-min Rain = 0
KMD1 150004Z 22014KT 29/20 A2988 RMK A01 T02920199  RH  057%=      5-min Rain = 0
KMD1 150005Z 22010KT 29/20 A2988 RMK A01 T02920198  RH  057%=      5-min Rain = 0
KMD1 150006Z 23012G17KT 29/20 A2988 RMK A01 T02910198  RH  057%=      5-min Rain = 0
KMD1 150007Z 23014KT 29/20 A2988 RMK A01 T02910198  RH  057%=      5-min Rain = 0
KMD1 150008Z 22012KT 29/20 A2988 RMK A01 T02910198  RH  057%=      5-min Rain = 0
KMD1 150009Z 22011KT 29/20 A2988 RMK A01 T02910198  RH  057%=      5-min Rain = 0
KMD1 150010Z 23011KT 29/20 A2988 RMK A01 T02910198  RH  057%=      5-min Rain = 0
KMD1 150011Z 22009KT 29/20 A2988 RMK A01 T02900198  RH  058%=      5-min Rain = 0
KMD1 150012Z 23009KT 29/20 A2988 RMK A01 T02900199  RH  058%=      5-min Rain = 0
KMD1 150013Z 24011KT 29/20 A2988 RMK A01 T02900198  RH  058%=      5-min Rain = 0
KMD1 150014Z 22010KT 29/20 A2988 RMK A01 T02900198  RH  058%=      5-min Rain = 0
KMD1 150015Z 23007G12KT 29/20 A2988 RMK A01 T02900198  RH  058%=      5-min Rain = 0
KMD1 150016Z 22009KT 29/20 A2987 RMK A01 T02900198  RH  058%=      5-min Rain = 0
KMD1 150017Z 22012KT 29/20 A2987 RMK A01 T02890198  RH  058%=      5-min Rain = 0
KMD1 150018Z 22012KT 29/20 A2987 RMK A01 T02890198  RH  058%=      5-min Rain = 0
KMD1 150019Z 23010KT 29/20 A2987 RMK A01 T02880198  RH  058%=      5-min Rain = 0
KMD1 150020Z 24009KT 29/20 A2987 RMK A01 T02880198  RH  058%=      5-min Rain = 0
KMD1 150021Z 23009KT 29/20 A2987 RMK A01 T02880197  RH  058%=      5-min Rain = 0
KMD1 150022Z 23010KT 29/20 A2987 RMK A01 T02880198  RH  058%=      5-min Rain = 0
KMD1 150023Z 23008KT 29/20 A2987 RMK A01 T02870198  RH  058%=      5-min Rain = 0
KMD1 150024Z 23013KT 29/20 A2987 RMK A01 T02870198  RH  058%=      5-min Rain = 0
KMD1 150025Z 23011KT 29/20 A2987 RMK A01 T02860197  RH  058%=      5-min Rain = 0
KMD1 150026Z 22011KT 29/20 A2987 RMK A01 T02860197  RH  058%=      5-min Rain = 0
KMD1 150027Z 22010KT 29/20 A2987 RMK A01 T02860197  RH  059%=      5-min Rain = 0
KMD1 150028Z 22009KT 29/20 A2988 RMK A01 T02860197  RH  059%=      5-min Rain = 0
KMD1 150029Z 24007KT 29/20 A2988 RMK A01 T02860197  RH  059%=      5-min Rain = 0
KMD1 150030Z 22009KT 29/20 A2988 RMK A01 T02850197  RH  059%=      5-min Rain = 0
KMD1 150031Z 23009KT 29/20 A2988 RMK A01 T02850197  RH  059%=      5-min Rain = 0
KMD1 150032Z 23007KT 29/20 A2988 RMK A01 T02860197  RH  059%=      5-min Rain = 0
KMD1 150033Z 22009KT 29/20 A2988 RMK A01 T02860196  RH  058%=      5-min Rain = 0
KMD1 150034Z 21008KT 29/20 A2989 RMK A01 T02860196  RH  058%=      5-min Rain = 0
KMD1 150035Z 22006KT 29/20 A2989 RMK A01 T02860196  RH  058%=      5-min Rain = 0
KMD1 150036Z 23006KT 29/20 A2989 RMK A01 T02860196  RH  058%=      5-min Rain = 0
KMD1 150037Z 23008KT 29/20 A2989 RMK A01 T02860196  RH  058%=      5-min Rain = 0
KMD1 150038Z 23008KT 29/20 A299 RMK A01 T02860196  RH  058%=      5-min Rain = 0
KMD1 150039Z 23008KT 29/20 A299 RMK A01 T02870197  RH  058%=      5-min Rain = 0
KMD1 150040Z 25008KT 29/20 A299 RMK A01 T02870197  RH  058%=      5-min Rain = 0
KMD1 150041Z 24009KT 29/20 A299 RMK A01 T02870197  RH  058%=      5-min Rain = 0
KMD1 150042Z 23011KT 29/20 A299 RMK A01 T02860197  RH  058%=      5-min Rain = 0
KMD1 150043Z 24009KT 29/20 A299 RMK A01 T02860196  RH  058%=      5-min Rain = 0
KMD1 150044Z 25007KT 29/20 A2991 RMK A01 T02850196  RH  058%=      5-min Rain = 0
KMD1 150045Z 27007KT 29/20 A2991 RMK A01 T02850196  RH  059%=      5-min Rain = 0
KMD1 150046Z 25007KT 29/20 A2991 RMK A01 T02850196  RH  059%=      5-min Rain = 0
KMD1 150047Z 31002KT 28/20 A2992 RMK A01 T02840196  RH  059%=      5-min Rain = 0
KMD1 150048Z 03008G18KT 28/19 A2992 RMK A01 T02840194  RH  058%=      5-min Rain = 0
KMD1 150049Z 04012KT 27/18 A2993 RMK A01 T02730175  RH  055%=      5-min Rain = 0
KMD1 150050Z 05011KT 25/17 A2993 RMK A01 T02530171  RH  061%=      5-min Rain = 0
KMD1 150051Z 05011KT 24/17 A2993 RMK A01 T02420170  RH  064%=      5-min Rain = 0
KMD1 150052Z 05011KT 23/17 A2993 RMK A01 T02340170  RH  067%=      5-min Rain = 0
KMD1 150053Z 07010KT 23/17 A2993 RMK A01 T02300169  RH  069%=      5-min Rain = 0
KMD1 150054Z 07010KT 23/17 A2993 RMK A01 T02270169  RH  070%=      5-min Rain = 0
KMD1 150055Z 05008KT 23/17 A2993 RMK A01 T02260170  RH  070%=      5-min Rain = 0
KMD1 150056Z 06007KT 23/17 A2993 RMK A01 T02250169  RH  071%=      5-min Rain = 0
KMD1 150057Z 06008KT 22/17 A2993 RMK A01 T02240169  RH  071%=      5-min Rain = 0
KMD1 150058Z 05008KT 22/17 A2994 RMK A01 T02240169  RH  071%=      5-min Rain = 0
KMD1 150059Z 05007KT 22/17 A2994 RMK A01 T02240169  RH  071%=      5-min Rain = 0
KMD1 150100Z 03006KT 22/17 A2994 RMK A01 T02230169  RH  072%=      5-min Rain = 0
KMD1 150101Z 01009KT 22/17 A2994 RMK A01 T02230170  RH  072%=      5-min Rain = 0
KMD1 150102Z 02007KT 22/17 A2994 RMK A01 T02240171  RH  072%=      5-min Rain = 0
KMD1 150103Z 03008KT 23/17 A2994 RMK A01 T02260171  RH  071%=      5-min Rain = 0
KMD1 150104Z 03010KT 23/17 A2994 RMK A01 T02270171  RH  071%=      5-min Rain = 0
KMD1 150105Z 04009KT 23/17 A2994 RMK A01 T02270171  RH  071%=      5-min Rain = 0
KMD1 150106Z 02009KT 23/17 A2994 RMK A01 T02270171  RH  071%=      5-min Rain = 0
KMD1 150107Z 05012KT 23/17 A2994 RMK A01 T02270171  RH  071%=      5-min Rain = 0
KMD1 150108Z 04014G20KT 23/17 A2994 RMK A01 T02270172  RH  071%=      5-min Rain = 0
KMD1 150109Z 03017KT 23/17 A2994 RMK A01 T02280174  RH  072%=      5-min Rain = 0
KMD1 150110Z 04014KT 23/18 A2994 RMK A01 T02270175  RH  073%=      5-min Rain = 0
KMD1 150111Z 04013KT 23/18 A2994 RMK A01 T02250176  RH  073%=      5-min Rain = 0
KMD1 150112Z 04012KT 22/18 A2994 RMK A01 T02240175  RH  074%=      5-min Rain = 0
KMD1 150113Z 04011KT 22/18 A2994 RMK A01 T02240175  RH  074%=      5-min Rain = 0
KMD1 150114Z 04012KT 22/18 A2994 RMK A01 T02240175  RH  074%=      5-min Rain = 0
KMD1 150115Z 04011KT 22/18 A2994 RMK A01 T02240175  RH  074%=      5-min Rain = 0
KMD1 150116Z 03009KT 23/18 A2994 RMK A01 T02250176  RH  074%=      5-min Rain = 0
KMD1 150117Z 03008KT 23/18 A2994 RMK A01 T02250175  RH  074%=      5-min Rain = 0
KMD1 150118Z 01008KT 23/18 A2994 RMK A01 T02250176  RH  074%=      5-min Rain = 0
KMD1 150119Z 02009KT 23/18 A2994 RMK A01 T02250177  RH  074%=      5-min Rain = 0
KMD1 150120Z 02011KT 23/18 A2994 RMK A01 T02250177  RH  074%=      5-min Rain = 0
KMD1 150121Z 02008KT 23/18 A2994 RMK A01 T02250177  RH  074%=      5-min Rain = 0
KMD1 150122Z 03006KT 22/18 A2994 RMK A01 T02240177  RH  074%=      5-min Rain = 0
KMD1 150123Z 04006KT 22/18 A2994 RMK A01 T02240177  RH  074%=      5-min Rain = 0
KMD1 150124Z 04006KT 22/18 A2994 RMK A01 T02240177  RH  074%=      5-min Rain = 0
KMD1 150125Z 03007KT 22/18 A2994 RMK A01 T02240177  RH  075%=      5-min Rain = 0
KMD1 150126Z 03008KT 22/18 A2994 RMK A01 T02240177  RH  074%=      5-min Rain = 0
KMD1 150127Z 04010KT 22/18 A2994 RMK A01 T02240176  RH  074%=      5-min Rain = 0
KMD1 150128Z 03010KT 22/18 A2994 RMK A01 T02240176  RH  074%=      5-min Rain = 0
KMD1 150129Z 03008KT 22/18 A2994 RMK A01 T02240176  RH  074%=      5-min Rain = 0
KMD1 150130Z 05006KT 22/18 A2994 RMK A01 T02240176  RH  074%=      5-min Rain = 0
KMD1 150131Z 05007KT 22/18 A2994 RMK A01 T02240175  RH  074%=      5-min Rain = 0
KMD1 150132Z 04005KT 22/18 A2994 RMK A01 T02230175  RH  074%=      5-min Rain = 0
KMD1 150133Z 04005KT 22/18 A2994 RMK A01 T02230175  RH  074%=      5-min Rain = 0
KMD1 150134Z 04004KT 22/18 A2994 RMK A01 T02230175  RH  074%=      5-min Rain = 0
KMD1 150135Z 04004KT 22/18 A2994 RMK A01 T02230175  RH  074%=      5-min Rain = 0
KMD1 150136Z 05005KT 22/18 A2995 RMK A01 T02240175  RH  074%=      5-min Rain = 0
KMD1 150137Z 04007KT 22/17 A2995 RMK A01 T02240174  RH  073%=      5-min Rain = 0
KMD1 150138Z 06006KT 22/17 A2995 RMK A01 T02240174  RH  073%=      5-min Rain = 0
KMD1 150139Z 03006KT 22/17 A2995 RMK A01 T02240173  RH  073%=      5-min Rain = 0
KMD1 150140Z 03005KT 22/17 A2994 RMK A01 T02240174  RH  073%=      5-min Rain = 0
KMD1 150141Z 05004KT 22/17 A2994 RMK A01 T02230173  RH  073%=      5-min Rain = 0
KMD1 150142Z 06003KT 22/17 A2994 RMK A01 T02230173  RH  073%=      5-min Rain = 0
KMD1 150143Z 02003KT 22/17 A2995 RMK A01 T02230173  RH  073%=      5-min Rain = 0
KMD1 150144Z 02004KT 22/17 A2995 RMK A01 T02230173  RH  073%=      5-min Rain = 0
KMD1 150145Z 02004KT 22/17 A2995 RMK A01 T02230173  RH  073%=      5-min Rain = 0
KMD1 150146Z 02005KT 22/17 A2995 RMK A01 T02240173  RH  073%=      5-min Rain = 0
KMD1 150147Z 03005KT 22/17 A2995 RMK A01 T02240173  RH  073%=      5-min Rain = 0
KMD1 150148Z 02005KT 23/17 A2994 RMK A01 T02250173  RH  072%=      5-min Rain = 0
KMD1 150149Z 03005KT 23/17 A2994 RMK A01 T02250173  RH  072%=      5-min Rain = 0
KMD1 150150Z 03004KT 23/17 A2994 RMK A01 T02250173  RH  072%=      5-min Rain = 0
KMD1 150151Z 03007KT 23/17 A2995 RMK A01 T02260173  RH  072%=      5-min Rain = 0
KMD1 150152Z 03005KT 23/17 A2995 RMK A01 T02260173  RH  072%=      5-min Rain = 0
KMD1 150153Z 04006KT 23/17 A2995 RMK A01 T02260174  RH  072%=      5-min Rain = 0
KMD1 150154Z 06006KT 23/17 A2995 RMK A01 T02270174  RH  072%=      5-min Rain = 0
KMD1 150155Z 06007KT 23/17 A2995 RMK A01 T02260174  RH  072%=      5-min Rain = 0
KMD1 150156Z 07007KT 23/18 A2995 RMK A01 T02260175  RH  073%=      5-min Rain = 0
KMD1 150157Z 08007KT 23/18 A2995 RMK A01 T02250175  RH  073%=      5-min Rain = 0
KMD1 150158Z 09008KT 23/18 A2996 RMK A01 T02250175  RH  073%=      5-min Rain = 0
KMD1 150159Z 09010KT 23/18 A2996 RMK A01 T02250176  RH  074%=      5-min Rain = 0
KMD1 150200Z 08010KT 22/18 A2996 RMK A01 T02240178  RH  075%=      5-min Rain = 0
KMD1 150201Z 08010KT 22/18 A2996 RMK A01 T02230178  RH  076%=      5-min Rain = 0
KMD1 150202Z 09012KT 22/18 A2996 RMK A01 T02220179  RH  077%=      5-min Rain = 0
KMD1 150203Z 08010KT 22/18 A2996 RMK A01 T02210180  RH  078%=      5-min Rain = 0
KMD1 150204Z 09010KT 22/18 A2996 RMK A01 T02210180  RH  078%=      5-min Rain = 0
KMD1 150205Z 10011KT 22/18 A2996 RMK A01 T02200180  RH  078%=      5-min Rain = 0
KMD1 150206Z 10010KT 22/18 A2997 RMK A01 T02200181  RH  078%=      5-min Rain = 0
KMD1 150207Z 10010KT 22/18 A2997 RMK A01 T02200181  RH  078%=      5-min Rain = 0
KMD1 150208Z 10010KT 22/18 A2997 RMK A01 T02200181  RH  078%=      5-min Rain = 0
KMD1 150209Z 09010KT 22/18 A2998 RMK A01 T02190180  RH  078%=      5-min Rain = 0
KMD1 150210Z 10013KT 22/18 A2998 RMK A01 T02190178  RH  078%=      5-min Rain = 0
KMD1 150211Z 09014KT 22/18 A2998 RMK A01 T02170176  RH  077%=      5-min Rain = 0
KMD1 150212Z 08011KT 22/18 A2998 RMK A01 T02160177  RH  078%=      5-min Rain = 0
KMD1 150213Z 08012KT 21/18 A2998 RMK A01 T02140177  RH  079%=      5-min Rain = 0
KMD1 150214Z 08011KT 21/18 A2998 RMK A01 T02110177  RH  081%=      5-min Rain = 0.02
KMD1 150215Z 08012KT 21/18 A2999 RMK A01 T02080177  RH  083%=      5-min Rain = 0.02
KMD1 150216Z 09010KT 20/18 A2999 RMK A01 T02040175  RH  084%=      5-min Rain = 0
KMD1 150217Z 08009KT 20/18 A2999 RMK A01 T02010176  RH  085%=      5-min Rain = 0
KMD1 150218Z 07007KT 20/18 A30 RMK A01 T01990176  RH  086%=      5-min Rain = 0
KMD1 150219Z 05008KT 20/18 A3001 RMK A01 T01980177  RH  088%=      5-min Rain = 0
KMD1 150220Z 02010KT 20/18 A3002 RMK A01 T01980179  RH  089%=      5-min Rain = 0
KMD1 150221Z 01011KT 20/18 A3003 RMK A01 T01980181  RH  090%=      5-min Rain = 0
KMD1 150222Z 00012KT 20/18 A3003 RMK A01 T01990181  RH  089%=      5-min Rain = 0.02
KMD1 150223Z 01014KT 20/18 A3003 RMK A01 T02000182  RH  089%=      5-min Rain = 0
KMD1 150224Z 02013KT 20/18 A3003 RMK A01 T02020179  RH  087%=      5-min Rain = 0
KMD1 150225Z 02011KT 20/18 A3003 RMK A01 T02030181  RH  087%=      5-min Rain = 0
KMD1 150226Z 03013KT 20/18 A3003 RMK A01 T02040181  RH  087%=      5-min Rain = 0
KMD1 150227Z 03015KT 20/18 A3003 RMK A01 T02040177  RH  085%=      5-min Rain = 0
KMD1 150228Z 02016KT 20/17 A3003 RMK A01 T02030174  RH  083%=      5-min Rain = 0
KMD1 150229Z 03019G24KT 20/18 A3003 RMK A01 T02030175  RH  084%=      5-min Rain = 0
KMD1 150230Z 02015KT 20/17 A3003 RMK A01 T02020174  RH  084%=      5-min Rain = 0
KMD1 150231Z 01016G21KT 20/17 A3003 RMK A01 T02000174  RH  085%=      5-min Rain = 0
KMD1 150232Z 02016KT 20/17 A3003 RMK A01 T01990173  RH  085%=      5-min Rain = 0
KMD1 150233Z 02012KT 20/17 A3003 RMK A01 T01980172  RH  085%=      5-min Rain = 0
KMD1 150234Z 03010KT 20/17 A3004 RMK A01 T01970174  RH  086%=      5-min Rain = 0
KMD1 150235Z 03015KT 20/17 A3004 RMK A01 T01960173  RH  087%=      5-min Rain = 0
KMD1 150236Z 02010KT 20/17 A3004 RMK A01 T01960173  RH  087%=      5-min Rain = 0
KMD1 150237Z 01011KT 20/17 A3004 RMK A01 T01950173  RH  087%=      5-min Rain = 0
KMD1 150238Z 01012KT 20/17 A3004 RMK A01 T01950172  RH  087%=      5-min Rain = 0
KMD1 150239Z 01016KT 19/17 A3004 RMK A01 T01940171  RH  086%=      5-min Rain = 0
KMD1 150240Z 02015G24KT 19/17 A3004 RMK A01 T01930171  RH  087%=      5-min Rain = 0
KMD1 150241Z 01021KT 19/17 A3004 RMK A01 T01920166  RH  084%=      5-min Rain = 0
KMD1 150242Z 01015KT 19/16 A3005 RMK A01 T01920164  RH  084%=      5-min Rain = 0
KMD1 150243Z 02017KT 19/17 A3005 RMK A01 T01910166  RH  085%=      5-min Rain = 0
KMD1 150244Z 02017KT 19/17 A3005 RMK A01 T01900165  RH  086%=      5-min Rain = 0
KMD1 150245Z 02017KT 19/17 A3005 RMK A01 T01890165  RH  086%=      5-min Rain = 0.01
KMD1 150246Z 03014KT 19/17 A3005 RMK A01 T01880167  RH  088%=      5-min Rain = 0.02
KMD1 150247Z 04015KT 19/17 A3004 RMK A01 T01870168  RH  089%=      5-min Rain = 0.02
KMD1 150248Z 03014KT 19/17 A3004 RMK A01 T01850168  RH  089%=      5-min Rain = 0.03
KMD1 150249Z 03014KT 18/17 A3003 RMK A01 T01840167  RH  090%=      5-min Rain = 0.03
KMD1 150250Z 04013KT 18/17 A3003 RMK A01 T01830167  RH  090%=      5-min Rain = 0.03
KMD1 150251Z 04012KT 18/17 A3002 RMK A01 T01810167  RH  091%=      5-min Rain = 0.03
KMD1 150252Z 05010KT 18/17 A3002 RMK A01 T01810167  RH  092%=      5-min Rain = 0.02
KMD1 150253Z 05012KT 18/17 A3002 RMK A01 T01800168  RH  092%=      5-min Rain = 0.02
KMD1 150254Z 06012KT 18/17 A3001 RMK A01 T01800167  RH  092%=      5-min Rain = 0.02
KMD1 150255Z 06011KT 18/17 A3001 RMK A01 T01790168  RH  093%=      5-min Rain = 0.02
KMD1 150256Z 07011KT 18/17 A3001 RMK A01 T01790168  RH  093%=      5-min Rain = 0.01
KMD1 150257Z 07009KT 18/17 A3002 RMK A01 T01790168  RH  093%=      5-min Rain = 0
KMD1 150258Z 08008KT 18/17 A3002 RMK A01 T01790168  RH  094%=      5-min Rain = 0
KMD1 150259Z 08009KT 18/17 A3003 RMK A01 T01790169  RH  094%=      5-min Rain = 0.01
KMD1 150300Z 10008KT 18/17 A3003 RMK A01 T01790169  RH  094%=      5-min Rain = 0
KMD1 150301Z 11008KT 18/17 A3003 RMK A01 T01790170  RH  094%=      5-min Rain = 0
KMD1 150302Z 11009KT 18/17 A3003 RMK A01 T01790170  RH  094%=      5-min Rain = 0.01
KMD1 150303Z 12009KT 18/17 A3004 RMK A01 T01800171  RH  095%=      5-min Rain = 0
KMD1 150304Z 12009KT 18/17 A3004 RMK A01 T01800172  RH  095%=      5-min Rain = 0
KMD1 150305Z 12009KT 18/17 A3004 RMK A01 T01800172  RH  095%=      5-min Rain = 0
KMD1 150306Z 12009KT 18/17 A3004 RMK A01 T01800172  RH  095%=      5-min Rain = 0
KMD1 150307Z 12009KT 18/17 A3004 RMK A01 T01800172  RH  095%=      5-min Rain = 0
KMD1 150308Z 12007KT 18/17 A3004 RMK A01 T01800172  RH  095%=      5-min Rain = 0
KMD1 150309Z 12007KT 18/17 A3004 RMK A01 T01800172  RH  095%=      5-min Rain = 0
KMD1 150310Z 11007KT 18/17 A3004 RMK A01 T01800172  RH  095%=      5-min Rain = 0
KMD1 150311Z 11007KT 18/17 A3004 RMK A01 T01800173  RH  095%=      5-min Rain = 0
KMD1 150312Z 10007KT 18/17 A3004 RMK A01 T01800172  RH  095%=      5-min Rain = 0
KMD1 150313Z 10007KT 18/17 A3003 RMK A01 T01800173  RH  095%=      5-min Rain = 0
KMD1 150314Z 09007KT 18/17 A3003 RMK A01 T01800173  RH  095%=      5-min Rain = 0
KMD1 150315Z 09008KT 18/17 A3002 RMK A01 T01800172  RH  095%=      5-min Rain = 0
KMD1 150316Z 09009KT 18/17 A3002 RMK A01 T01800172  RH  095%=      5-min Rain = 0
KMD1 150317Z 08008KT 18/17 A3002 RMK A01 T01800173  RH  095%=      5-min Rain = 0
KMD1 150318Z 07008KT 18/17 A3002 RMK A01 T01810173  RH  095%=      5-min Rain = 0
KMD1 150319Z 06007KT 18/17 A3002 RMK A01 T01810174  RH  096%=      5-min Rain = 0.01
KMD1 150320Z 03005KT 18/18 A3003 RMK A01 T01820175  RH  096%=      5-min Rain = 0
KMD1 150321Z 33006KT 18/18 A3003 RMK A01 T01820175  RH  096%=      5-min Rain = 0
KMD1 150322Z 31007KT 18/18 A3004 RMK A01 T01820176  RH  096%=      5-min Rain = 0.01
KMD1 150323Z 31006KT 18/18 A3004 RMK A01 T01830176  RH  096%=      5-min Rain = 0
KMD1 150324Z 34004KT 18/18 A3004 RMK A01 T01820175  RH  096%=      5-min Rain = 0.01
KMD1 150325Z 32008G14KT 18/17 A3004 RMK A01 T01810174  RH  096%=      5-min Rain = 0.01
KMD1 150326Z 33009G14KT 18/17 A3005 RMK A01 T01810173  RH  095%=      5-min Rain = 0
KMD1 150327Z 34003G8KT 18/17 A3005 RMK A01 T01810170  RH  094%=      5-min Rain = 0
KMD1 150328Z 04004KT 18/17 A3005 RMK A01 T01810168  RH  093%=      5-min Rain = 0
KMD1 150329Z 06003KT 18/17 A3004 RMK A01 T01820169  RH  092%=      5-min Rain = 0.01
KMD1 150330Z 06002KT 18/17 A3004 RMK A01 T01830169  RH  092%=      5-min Rain = 0
KMD1 150331Z 05004KT 18/17 A3004 RMK A01 T01830168  RH  091%=      5-min Rain = 0
KMD1 150332Z 05004KT 18/17 A3005 RMK A01 T01840169  RH  091%=      5-min Rain = 0
KMD1 150333Z 04004KT 19/17 A3005 RMK A01 T01850171  RH  092%=      5-min Rain = 0
KMD1 150334Z 01004KT 19/17 A3005 RMK A01 T01850173  RH  092%=      5-min Rain = 0
KMD1 150335Z 36005KT 19/17 A3005 RMK A01 T01850173  RH  093%=      5-min Rain = 0
KMD1 150336Z 00004KT 19/17 A3005 RMK A01 T01850173  RH  092%=      5-min Rain = 0.01
KMD1 150337Z 35004KT 19/17 A3005 RMK A01 T01850172  RH  092%=      5-min Rain = 0
KMD1 150338Z 34004KT 19/17 A3005 RMK A01 T01850173  RH  093%=      5-min Rain = 0
KMD1 150339Z 34003KT 19/17 A3005 RMK A01 T01850173  RH  093%=      5-min Rain = 0
KMD1 150340Z 34003KT 19/17 A3004 RMK A01 T01850174  RH  093%=      5-min Rain = 0
KMD1 150341Z 36006KT 18/17 A3004 RMK A01 T01840174  RH  093%=      5-min Rain = 0
KMD1 150342Z 35006KT 18/17 A3004 RMK A01 T01840174  RH  094%=      5-min Rain = 0
KMD1 150343Z 36007KT 18/17 A3004 RMK A01 T01840174  RH  094%=      5-min Rain = 0
KMD1 150344Z 35005KT 18/17 A3004 RMK A01 T01830173  RH  094%=      5-min Rain = 0
KMD1 150345Z 01005KT 18/17 A3004 RMK A01 T01830173  RH  094%=      5-min Rain = 0
KMD1 150346Z 02004KT 18/17 A3004 RMK A01 T01830174  RH  094%=      5-min Rain = 0
KMD1 150347Z 03004KT 18/17 A3004 RMK A01 T01830174  RH  094%=      5-min Rain = 0
KMD1 150348Z 09004KT 18/17 A3004 RMK A01 T01830174  RH  094%=      5-min Rain = 0
KMD1 150349Z 11005KT 18/17 A3004 RMK A01 T01820174  RH  095%=      5-min Rain = 0.01
KMD1 150350Z 13005KT 18/18 A3004 RMK A01 T01830175  RH  095%=      5-min Rain = 0
KMD1 150351Z 14005KT 18/18 A3003 RMK A01 T01830175  RH  095%=      5-min Rain = 0
KMD1 150352Z 13005KT 18/18 A3003 RMK A01 T01830175  RH  095%=      5-min Rain = 0
KMD1 150353Z 11003KT 18/18 A3003 RMK A01 T01840177  RH  095%=      5-min Rain = 0
KMD1 150354Z 12003KT 18/18 A3003 RMK A01 T01840177  RH  095%=      5-min Rain = 0
KMD1 150355Z 13003KT 19/18 A3003 RMK A01 T01850177  RH  095%=      5-min Rain = 0
KMD1 150356Z 11004KT 18/18 A3003 RMK A01 T01840175  RH  095%=      5-min Rain = 0
KMD1 150357Z 11004KT 18/18 A3003 RMK A01 T01840175  RH  094%=      5-min Rain = 0
KMD1 150358Z 12004KT 18/17 A3002 RMK A01 T01840174  RH  094%=      5-min Rain = 0
KMD1 150359Z 10005KT 18/17 A3002 RMK A01 T01840173  RH  094%=      5-min Rain = 0
KMD1 150400Z 10005KT 18/17 A3002 RMK A01 T01840174  RH  094%=      5-min Rain = 0
KMD1 150401Z 10005KT 19/17 A3002 RMK A01 T01850174  RH  093%=      5-min Rain = 0
KMD1 150402Z 11006KT 19/17 A3002 RMK A01 T01850174  RH  093%=      5-min Rain = 0
KMD1 150403Z 11007KT 19/18 A3002 RMK A01 T01850175  RH  094%=      5-min Rain = 0
KMD1 150404Z 11007KT 19/18 A3002 RMK A01 T01860176  RH  094%=      5-min Rain = 0
KMD1 150405Z 11007KT 19/18 A3001 RMK A01 T01860175  RH  094%=      5-min Rain = 0
KMD1 150406Z 11007KT 19/18 A3001 RMK A01 T01860176  RH  094%=      5-min Rain = 0
KMD1 150407Z 11007KT 19/18 A3001 RMK A01 T01860177  RH  094%=      5-min Rain = 0
KMD1 150408Z 11007KT 19/18 A3001 RMK A01 T01860176  RH  094%=      5-min Rain = 0
KMD1 150409Z 11008KT 19/18 A3001 RMK A01 T01860176  RH  094%=      5-min Rain = 0
KMD1 150410Z 11008KT 19/18 A3001 RMK A01 T01860176  RH  094%=      5-min Rain = 0
KMD1 150411Z 11006KT 19/18 A30 RMK A01 T01850176  RH  094%=      5-min Rain = 0
KMD1 150412Z 10007KT 19/18 A30 RMK A01 T01850175  RH  094%=      5-min Rain = 0
KMD1 150413Z 10008KT 19/17 A30 RMK A01 T01850174  RH  093%=      5-min Rain = 0
KMD1 150414Z 10006KT 19/17 A30 RMK A01 T01850174  RH  093%=      5-min Rain = 0
KMD1 150415Z 10006KT 19/17 A30 RMK A01 T01850173  RH  093%=      5-min Rain = 0
KMD1 150416Z 10006KT 19/17 A30 RMK A01 T01850173  RH  093%=      5-min Rain = 0
KMD1 150417Z 11005KT 19/17 A30 RMK A01 T01850174  RH  093%=      5-min Rain = 0
KMD1 150418Z 11006KT 19/17 A2999 RMK A01 T01850174  RH  093%=      5-min Rain = 0
KMD1 150419Z 12005KT 19/17 A2999 RMK A01 T01850174  RH  093%=      5-min Rain = 0
KMD1 150420Z 12004KT 19/17 A2999 RMK A01 T01850174  RH  093%=      5-min Rain = 0
KMD1 150421Z 12003KT 19/17 A2999 RMK A01 T01850173  RH  093%=      5-min Rain = 0
KMD1 150422Z 12004KT 19/17 A2999 RMK A01 T01850173  RH  092%=      5-min Rain = 0
KMD1 150423Z 12004KT 19/17 A2999 RMK A01 T01850172  RH  092%=      5-min Rain = 0
KMD1 150424Z 15004KT 19/17 A2999 RMK A01 T01850171  RH  092%=      5-min Rain = 0
KMD1 150425Z 15004KT 19/17 A2999 RMK A01 T01860171  RH  091%=      5-min Rain = 0
KMD1 150426Z 14004KT 19/17 A30 RMK A01 T01860170  RH  090%=      5-min Rain = 0
KMD1 150427Z 14004KT 19/17 A30 RMK A01 T01870170  RH  090%=      5-min Rain = 0
KMD1 150428Z 14005KT 19/17 A30 RMK A01 T01870169  RH  089%=      5-min Rain = 0
KMD1 150429Z 14004KT 19/17 A30 RMK A01 T01880168  RH  088%=      5-min Rain = 0
KMD1 150430Z 15005KT 19/17 A2999 RMK A01 T01890168  RH  088%=      5-min Rain = 0
KMD1 150431Z 15004KT 19/17 A2999 RMK A01 T01900168  RH  087%=      5-min Rain = 0
KMD1 150432Z 15004KT 19/17 A2999 RMK A01 T01900168  RH  087%=      5-min Rain = 0
KMD1 150433Z 17004KT 19/17 A2999 RMK A01 T01900168  RH  087%=      5-min Rain = 0
KMD1 150434Z 16004KT 19/17 A2999 RMK A01 T01900168  RH  087%=      5-min Rain = 0
KMD1 150435Z 16004KT 19/17 A2999 RMK A01 T01900169  RH  087%=      5-min Rain = 0
KMD1 150436Z 16004KT 19/17 A2998 RMK A01 T01900170  RH  088%=      5-min Rain = 0
KMD1 150437Z 15004KT 19/17 A2998 RMK A01 T01890170  RH  088%=      5-min Rain = 0
KMD1 150438Z 15004KT 19/17 A2999 RMK A01 T01890171  RH  089%=      5-min Rain = 0
KMD1 150439Z 15004KT 19/17 A2999 RMK A01 T01890171  RH  089%=      5-min Rain = 0
KMD1 150440Z 14003KT 19/17 A2998 RMK A01 T01880171  RH  089%=      5-min Rain = 0
KMD1 150441Z 12004KT 19/17 A2998 RMK A01 T01880170  RH  089%=      5-min Rain = 0
KMD1 150442Z 13003KT 19/17 A2998 RMK A01 T01880169  RH  089%=      5-min Rain = 0
KMD1 150443Z 13003KT 19/17 A2998 RMK A01 T01880168  RH  088%=      5-min Rain = 0
KMD1 150444Z 14004KT 19/17 A2998 RMK A01 T01880169  RH  089%=      5-min Rain = 0
KMD1 150445Z 15004KT 19/17 A2999 RMK A01 T01890170  RH  089%=      5-min Rain = 0
KMD1 150446Z 16004KT 19/17 A2999 RMK A01 T01890170  RH  089%=      5-min Rain = 0
KMD1 150447Z 16004KT 19/17 A2999 RMK A01 T01890171  RH  089%=      5-min Rain = 0
KMD1 150448Z 18004KT 19/17 A2999 RMK A01 T01880171  RH  089%=      5-min Rain = 0
KMD1 150449Z 18004KT 19/17 A2999 RMK A01 T01880170  RH  089%=      5-min Rain = 0
KMD1 150450Z 19004KT 19/17 A2999 RMK A01 T01880170  RH  090%=      5-min Rain = 0
KMD1 150451Z 20004KT 19/17 A2999 RMK A01 T01880170  RH  090%=      5-min Rain = 0
KMD1 150452Z 18003KT 19/17 A2999 RMK A01 T01870170  RH  090%=      5-min Rain = 0
KMD1 150453Z 19003KT 19/17 A2999 RMK A01 T01870170  RH  090%=      5-min Rain = 0
KMD1 150454Z 18002KT 19/17 A2999 RMK A01 T01870170  RH  090%=      5-min Rain = 0
KMD1 150455Z 19003KT 19/17 A2999 RMK A01 T01870170  RH  090%=      5-min Rain = 0
KMD1 150456Z 17003KT 19/17 A2999 RMK A01 T01870170  RH  090%=      5-min Rain = 0
KMD1 150457Z 17005KT 19/17 A2999 RMK A01 T01870170  RH  090%=      5-min Rain = 0
KMD1 150458Z 17005KT 19/17 A2999 RMK A01 T01870170  RH  090%=      5-min Rain = 0
KMD1 150459Z 17006KT 19/17 A2999 RMK A01 T01870170  RH  090%=      5-min Rain = 0

Page generated in 0.1192 seconds.